
Distance (Route):
Temperature : 0°C
Humidity : 0%
Pressure : 0hPa| Receiver | Date | Latitude | Longitude | Direction | Speed | Altitude | Climb | Temperature | Humidity | Pressure | Voltage | Killtimer | Uptime | BKT | XDATA |
|---|---|---|---|---|---|---|---|---|---|---|---|---|---|---|---|
| EA3GEO | 2026-09-01 00:57:40 | 41.61047 | 3.18797 | 186° | 27km/h | 158m | -6.6m/s | 0°C | 0% | 0hPa | 0V | 00:00:00 | 00:00:00 | 00:00:00 | |
| EA3GEO | 2026-09-01 00:57:35 | 41.61080 | 3.18803 | 194° | 27km/h | 199m | -8.1m/s | 0°C | 0% | 0hPa | 0V | 00:00:00 | 00:00:00 | 00:00:00 | |
| EA3GEO | 2026-09-01 00:57:29 | 41.61119 | 3.18809 | 189° | 27km/h | 247m | -7.7m/s | 0°C | 0% | 0hPa | 0V | 00:00:00 | 00:00:00 | 00:00:00 | |
| EA3GEO | 2026-09-01 00:57:23 | 41.61158 | 3.18818 | 205° | 24km/h | 294m | -8.2m/s | 0°C | 0% | 0hPa | 0V | 00:00:00 | 00:00:00 | 00:00:00 | |
| EA3GEO | 2026-09-01 00:57:18 | 41.61184 | 3.18831 | 202° | 27km/h | 331m | -7.4m/s | 0°C | 0% | 0hPa | 0V | 00:00:00 | 00:00:00 | 00:00:00 | |
| EA3GEO | 2026-09-01 00:57:12 | 41.61217 | 3.18846 | 208° | 22km/h | 383m | -7.7m/s | 0°C | 0% | 0hPa | 0V | 00:00:00 | 00:00:00 | 00:00:00 | |
| EA3GEO | 2026-09-01 00:57:06 | 41.61249 | 3.18862 | 195° | 22km/h | 434m | -4.9m/s | 0°C | 0% | 0hPa | 0V | 00:00:00 | 00:00:00 | 00:00:00 | |
| EA3GEO | 2026-09-01 00:57:01 | 41.61276 | 3.18875 | 206° | 26km/h | 475m | -8.9m/s | 0°C | 0% | 0hPa | 0V | 00:00:00 | 00:00:00 | 00:00:00 | |
| EA3GEO | 2026-09-01 00:56:55 | 41.61309 | 3.18893 | 206° | 22km/h | 525m | -5.1m/s | 0°C | 0% | 0hPa | 0V | 00:00:00 | 00:00:00 | 00:00:00 | |
| EA3GEO | 2026-09-01 00:56:50 | 41.61336 | 3.18909 | 197° | 22km/h | 563m | -8.7m/s | 0°C | 0% | 0hPa | 0V | 00:00:00 | 00:00:00 | 00:00:00 | |
| EA3GEO | 2026-09-01 00:56:44 | 41.61367 | 3.18925 | 204° | 20km/h | 611m | -7.1m/s | 0°C | 0% | 0hPa | 0V | 00:00:00 | 00:00:00 | 00:00:00 | |
| EA3GEO | 2026-09-01 00:56:39 | 41.61387 | 3.18937 | 209° | 16km/h | 653m | -7.8m/s | 0°C | 0% | 0hPa | 0V | 00:00:00 | 00:00:00 | 00:00:00 | |
| EA3GEO | 2026-09-01 00:56:32 | 41.61410 | 3.18951 | 207° | 13km/h | 709m | -7.4m/s | 0°C | 0% | 0hPa | 0V | 00:00:00 | 00:00:00 | 00:00:00 | |
| EA3GEO | 2026-09-01 00:56:27 | 41.61422 | 3.18960 | 210° | 11km/h | 749m | -8.7m/s | 0°C | 0% | 0hPa | 0V | 00:00:00 | 00:00:00 | 00:00:00 | |
| EA3GEO | 2026-09-01 00:56:22 | 41.61434 | 3.18964 | 188° | 15km/h | 789m | -8.5m/s | 0°C | 0% | 0hPa | 0V | 00:00:00 | 00:00:00 | 00:00:00 | |
| EA3GEO | 2026-09-01 00:56:16 | 41.61448 | 3.18969 | 183° | 13km/h | 842m | -6.5m/s | 0°C | 0% | 0hPa | 0V | 00:00:00 | 00:00:00 | 00:00:00 | |
| EA3GEO | 2026-09-01 00:56:10 | 41.61463 | 3.18975 | 201° | 9km/h | 890m | -6.8m/s | 0°C | 0% | 0hPa | 0V | 00:00:00 | 00:00:00 | 00:00:00 | |
| EA3GEO | 2026-09-01 00:56:04 | 41.61477 | 3.18983 | 201° | 13km/h | 939m | -6.4m/s | 0°C | 0% | 0hPa | 0V | 00:00:00 | 00:00:00 | 00:00:00 | |
| EA3GEO | 2026-09-01 00:55:59 | 41.61492 | 3.18989 | 210° | 13km/h | 983m | -8.5m/s | 0°C | 0% | 0hPa | 0V | 00:00:00 | 00:00:00 | 00:00:00 | |
| EA3GEO | 2026-09-01 00:55:53 | 41.61511 | 3.19000 | 217° | 13km/h | 1031m | -6.6m/s | 0°C | 0% | 0hPa | 0V | 00:00:00 | 00:00:00 | 00:00:00 | |
| EA3GEO | 2026-09-01 00:55:47 | 41.61530 | 3.19010 | 211° | 16km/h | 1079m | -8.5m/s | 0°C | 0% | 0hPa | 0V | 00:00:00 | 00:00:00 | 00:00:00 | |
| EA3GEO | 2026-09-01 00:55:42 | 41.61548 | 3.19017 | 202° | 13km/h | 1123m | -7.4m/s | 0°C | 0% | 0hPa | 0V | 00:00:00 | 00:00:00 | 00:00:00 | |
| EA3GEO | 2026-09-01 00:55:36 | 41.61570 | 3.19028 | 197° | 11km/h | 1171m | -7.2m/s | 0°C | 0% | 0hPa | 0V | 00:00:00 | 00:00:00 | 00:00:00 | |
| EA3GEO | 2026-09-01 00:55:30 | 41.61589 | 3.19034 | 191° | 13km/h | 1221m | -7.8m/s | 0°C | 0% | 0hPa | 0V | 00:00:00 | 00:00:00 | 00:00:00 | |
| EA3GEO | 2026-09-01 00:55:25 | 41.61601 | 3.19041 | 205° | 4km/h | 1264m | -6.9m/s | 0°C | 0% | 0hPa | 0V | 00:00:00 | 00:00:00 | 00:00:00 | |
| EA3GEO | 2026-09-01 00:55:20 | 41.61608 | 3.19047 | 213° | 5km/h | 1305m | -8.2m/s | 0°C | 0% | 0hPa | 0V | 00:00:00 | 00:00:00 | 00:00:00 | |
| EA3GEO | 2026-09-01 00:55:14 | 41.61612 | 3.19051 | 82° | 2km/h | 1354m | -6.6m/s | 0°C | 0% | 0hPa | 0V | 00:00:00 | 00:00:00 | 00:00:00 | |
| EA3GEO | 2026-09-01 00:55:08 | 41.61612 | 3.19042 | 61° | 2km/h | 1401m | -7.6m/s | 0°C | 0% | 0hPa | 0V | 00:00:00 | 00:00:00 | 00:00:00 | |
| EA3GEO | 2026-09-01 00:54:56 | 41.61595 | 3.19013 | 71° | 11km/h | 1501m | -10.2m/s | 0°C | 0% | 0hPa | 0V | 00:00:00 | 00:00:00 | 00:00:00 | |
| EA3GEO | 2026-09-01 00:54:51 | 41.61592 | 3.18997 | 84° | 15km/h | 1544m | -4.8m/s | 0°C | 0% | 0hPa | 0V | 00:00:00 | 00:00:00 | 00:00:00 | |
| EA3GEO | 2026-09-01 00:54:45 | 41.61589 | 3.18975 | 89° | 7km/h | 1592m | -7.1m/s | 0°C | 0% | 0hPa | 0V | 00:00:00 | 00:00:00 | 00:00:00 | |
| EA3GEO | 2026-09-01 00:54:40 | 41.61587 | 3.18955 | 55° | 11km/h | 1635m | -6.3m/s | 0°C | 0% | 0hPa | 0V | 00:00:00 | 00:00:00 | 00:00:00 | |
| EA3GEO | 2026-09-01 00:54:34 | 41.61580 | 3.18933 | 71° | 15km/h | 1686m | -8.2m/s | 0°C | 0% | 0hPa | 0V | 00:00:00 | 00:00:00 | 00:00:00 | |
| EA3GEO | 2026-09-01 00:54:29 | 41.61573 | 3.18908 | 65° | 15km/h | 1733m | -6.6m/s | 0°C | 0% | 0hPa | 0V | 00:00:00 | 00:00:00 | 00:00:00 | |
| EA3GEO | 2026-09-01 00:54:24 | 41.61564 | 3.18883 | 59° | 20km/h | 1769m | -7.0m/s | 0°C | 0% | 0hPa | 0V | 00:00:00 | 00:00:00 | 00:00:00 | |
| EA3GEO | 2026-09-01 00:54:18 | 41.61551 | 3.18846 | 74° | 20km/h | 1821m | -8.3m/s | 0°C | 0% | 0hPa | 0V | 00:00:00 | 00:00:00 | 00:00:00 | |
| EA3GEO | 2026-09-01 00:54:12 | 41.61540 | 3.18808 | 68° | 20km/h | 1870m | -7.0m/s | 0°C | 0% | 0hPa | 0V | 00:00:00 | 00:00:00 | 00:00:00 | |
| EA3GEO | 2026-09-01 00:54:08 | 41.61526 | 3.18776 | 62° | 22km/h | 1913m | -6.8m/s | 0°C | 0% | 0hPa | 0V | 00:00:00 | 00:00:00 | 00:00:00 | |
| EA3GEO | 2026-09-01 00:54:01 | 41.61506 | 3.18739 | 48° | 26km/h | 1963m | -8.0m/s | 0°C | 0% | 0hPa | 0V | 00:00:00 | 00:00:00 | 00:00:00 | |
| EA3GEO | 2026-09-01 00:53:56 | 41.61488 | 3.18709 | 43° | 24km/h | 2006m | -9.7m/s | 0°C | 0% | 0hPa | 0V | 00:00:00 | 00:00:00 | 00:00:00 | |
| EA3GEO | 2026-09-01 00:53:51 | 41.61468 | 3.18677 | 59° | 26km/h | 2047m | -6.7m/s | 0°C | 0% | 0hPa | 0V | 00:00:00 | 00:00:00 | 00:00:00 | |
| EA3GEO | 2026-09-01 00:53:46 | 41.61447 | 3.18645 | 49° | 26km/h | 2094m | -9.2m/s | 0°C | 0% | 0hPa | 0V | 00:00:00 | 00:00:00 | 00:00:00 | |
| EA3GEO | 2026-09-01 00:53:40 | 41.61420 | 3.18599 | 48° | 29km/h | 2147m | -7.3m/s | 0°C | 0% | 0hPa | 0V | 00:00:00 | 00:00:00 | 00:00:00 | |
| EA3GEO | 2026-09-01 00:53:35 | 41.61397 | 3.18563 | 51° | 26km/h | 2187m | -9.2m/s | 0°C | 0% | 0hPa | 0V | 00:00:00 | 00:00:00 | 00:00:00 | |
| EA3GEO | 2026-09-01 00:53:29 | 41.61371 | 3.18511 | 64° | 31km/h | 2237m | -5.5m/s | 0°C | 0% | 0hPa | 0V | 00:00:00 | 00:00:00 | 00:00:00 | |
| EA3GEO | 2026-09-01 00:53:22 | 41.61340 | 3.18451 | 67° | 31km/h | 2298m | -8.4m/s | 0°C | 0% | 0hPa | 0V | 00:00:00 | 00:00:00 | 00:00:00 | |
| EA3GEO | 2026-09-01 00:53:16 | 41.61318 | 3.18395 | 61° | 37km/h | 2349m | -7.4m/s | 0°C | 0% | 0hPa | 0V | 00:00:00 | 00:00:00 | 00:00:00 | |
| EA3GEO | 2026-09-01 00:53:09 | 41.61292 | 3.18323 | 64° | 35km/h | 2412m | -8.5m/s | 0°C | 0% | 0hPa | 0V | 00:00:00 | 00:00:00 | 00:00:00 | |
| EA3GEO | 2026-09-01 00:53:00 | 41.61262 | 3.18219 | 72° | 37km/h | 2493m | -9.1m/s | 0°C | 0% | 0hPa | 0V | 00:00:00 | 00:00:00 | 00:00:00 | |
| EA3GEO | 2026-09-01 00:52:48 | 41.61223 | 3.18071 | 71° | 37km/h | 2593m | -7.8m/s | 0°C | 0% | 0hPa | 0V | 00:00:00 | 00:00:00 | 00:00:00 | |
| EA3GEO | 2026-09-01 00:51:47 | 41.61066 | 3.17330 | 71° | 40km/h | 3108m | -7.4m/s | 0°C | 0% | 0hPa | 0V | 00:00:00 | 00:00:00 | 00:00:00 | |
| EA3GEO | 2026-09-01 00:51:36 | 41.61034 | 3.17203 | 75° | 35km/h | 3199m | -7.6m/s | 0°C | 0% | 0hPa | 0V | 00:00:00 | 00:00:00 | 00:00:00 | |
| EA3GEO | 2026-09-01 00:51:30 | 41.61023 | 3.17129 | 85° | 35km/h | 3253m | -7.8m/s | 0°C | 0% | 0hPa | 0V | 00:00:00 | 00:00:00 | 00:00:00 | |
| EA3GEO | 2026-09-01 00:51:16 | 41.61010 | 3.16943 | 88° | 46km/h | 3373m | -8.0m/s | 0°C | 0% | 0hPa | 0V | 00:00:00 | 00:00:00 | 00:00:00 | |
| EA3GEO | 2026-09-01 00:50:39 | 41.61057 | 3.16404 | 106° | 40km/h | 3689m | -9.4m/s | 0°C | 0% | 0hPa | 0V | 00:00:00 | 00:00:00 | 00:00:00 | |
| EA3GEO | 2026-09-01 00:50:13 | 41.61118 | 3.16031 | 103° | 38km/h | 3915m | -6.8m/s | 0°C | 0% | 0hPa | 0V | 00:00:00 | 00:00:00 | 00:00:00 | |
| EA3GEO | 2026-09-01 00:50:01 | 41.61134 | 3.15878 | 90° | 38km/h | 4016m | -6.9m/s | 0°C | 0% | 0hPa | 0V | 00:00:00 | 00:00:00 | 00:00:00 | |
| EA3GEO | 2026-09-01 00:48:56 | 41.60969 | 3.14929 | 75° | 51km/h | 4567m | -7.6m/s | 0°C | 0% | 0hPa | 0V | 00:00:00 | 00:00:00 | 00:00:00 | |
| EA3GEO | 2026-09-01 00:47:56 | 41.60765 | 3.14022 | 73° | 44km/h | 5107m | -10.3m/s | 0°C | 0% | 0hPa | 0V | 00:00:00 | 00:00:00 | 00:00:00 | |
| EA3GEO | 2026-09-01 00:47:22 | 41.60685 | 3.13534 | 82° | 42km/h | 5440m | -8.4m/s | 0°C | 0% | 0hPa | 0V | 00:00:00 | 00:00:00 | 00:00:00 | |
| EA3GEO | 2026-09-01 00:47:03 | 41.60653 | 3.13270 | 88° | 40km/h | 5628m | -6.7m/s | 0°C | 0% | 0hPa | 0V | 00:00:00 | 00:00:00 | 00:00:00 | |
| EA3GEO | 2026-09-01 00:46:58 | 41.60645 | 3.13199 | 86° | 42km/h | 5676m | -8.3m/s | 0°C | 0% | 0hPa | 0V | 00:00:00 | 00:00:00 | 00:00:00 | |
| EA3GEO | 2026-09-01 00:46:40 | 41.60617 | 3.12947 | 81° | 42km/h | 5844m | -8.5m/s | 0°C | 0% | 0hPa | 0V | 00:00:00 | 00:00:00 | 00:00:00 | |
| EA3GEO | 2026-09-01 00:45:41 | 41.60636 | 3.11964 | 95° | 60km/h | 6423m | -10.4m/s | 0°C | 0% | 0hPa | 0V | 00:00:00 | 00:00:00 | 00:00:00 | |
| EA3GEO | 2026-09-01 00:45:36 | 41.60642 | 3.11861 | 97° | 62km/h | 6477m | -10.9m/s | 0°C | 0% | 0hPa | 0V | 00:00:00 | 00:00:00 | 00:00:00 | |
| EA3GEO | 2026-09-01 00:45:30 | 41.60649 | 3.11735 | 97° | 64km/h | 6535m | -7.4m/s | 0°C | 0% | 0hPa | 0V | 00:00:00 | 00:00:00 | 00:00:00 | |
| EA3GEO | 2026-09-01 00:45:22 | 41.60658 | 3.11567 | 97° | 64km/h | 6611m | -9.6m/s | 0°C | 0% | 0hPa | 0V | 00:00:00 | 00:00:00 | 00:00:00 | |
| EA3GEO | 2026-09-01 00:45:17 | 41.60666 | 3.11437 | 98° | 66km/h | 6670m | -9.6m/s | 0°C | 0% | 0hPa | 0V | 00:00:00 | 00:00:00 | 00:00:00 | |
| EA3GEO | 2026-09-01 00:45:11 | 41.60671 | 3.11330 | 93° | 66km/h | 6721m | -9.3m/s | 0°C | 0% | 0hPa | 0V | 00:00:00 | 00:00:00 | 00:00:00 | |
| EA3GEO | 2026-09-01 00:45:06 | 41.60672 | 3.11204 | 95° | 64km/h | 6780m | -9.6m/s | 0°C | 0% | 0hPa | 0V | 00:00:00 | 00:00:00 | 00:00:00 | |
| EA3GEO | 2026-09-01 00:44:59 | 41.60671 | 3.11074 | 88° | 64km/h | 6841m | -8.3m/s | 0°C | 0% | 0hPa | 0V | 00:00:00 | 00:00:00 | 00:00:00 | |
| EA3GEO | 2026-09-01 00:44:52 | 41.60667 | 3.10923 | 88° | 62km/h | 6910m | -7.2m/s | 0°C | 0% | 0hPa | 0V | 00:00:00 | 00:00:00 | 00:00:00 | |
| EA3GEO | 2026-09-01 00:44:47 | 41.60663 | 3.10814 | 92° | 68km/h | 6961m | -10.2m/s | 0°C | 0% | 0hPa | 0V | 00:00:00 | 00:00:00 | 00:00:00 | |
| EA3GEO | 2026-09-01 00:44:39 | 41.60657 | 3.10641 | 87° | 64km/h | 7036m | -7.0m/s | 0°C | 0% | 0hPa | 0V | 00:00:00 | 00:00:00 | 00:00:00 | |
| EA3GEO | 2026-09-01 00:44:18 | 41.60644 | 3.10185 | 92° | 68km/h | 7230m | -9.2m/s | 0°C | 0% | 0hPa | 0V | 00:00:00 | 00:00:00 | 00:00:00 | |
| EA3GEO | 2026-09-01 00:44:12 | 41.60641 | 3.10056 | 89° | 62km/h | 7288m | -7.8m/s | 0°C | 0% | 0hPa | 0V | 00:00:00 | 00:00:00 | 00:00:00 | |
| EA3GEO | 2026-09-01 00:44:07 | 41.60640 | 3.09949 | 94° | 64km/h | 7336m | -9.7m/s | 0°C | 0% | 0hPa | 0V | 00:00:00 | 00:00:00 | 00:00:00 | |
| EA3GEO | 2026-09-01 00:44:00 | 41.60640 | 3.09792 | 89° | 68km/h | 7398m | -8.8m/s | 0°C | 0% | 0hPa | 0V | 00:00:00 | 00:00:00 | 00:00:00 | |
| EA3GEO | 2026-09-01 00:43:55 | 41.60640 | 3.09679 | 91° | 68km/h | 7450m | -9.7m/s | 0°C | 0% | 0hPa | 0V | 00:00:00 | 00:00:00 | 00:00:00 | |
| EA3GEO | 2026-09-01 00:43:43 | 41.60638 | 3.09407 | 89° | 66km/h | 7568m | -7.7m/s | 0°C | 0% | 0hPa | 0V | 00:00:00 | 00:00:00 | 00:00:00 | |
| EA3GEO | 2026-09-01 00:43:37 | 41.60634 | 3.09269 | 89° | 68km/h | 7624m | -9.0m/s | 0°C | 0% | 0hPa | 0V | 00:00:00 | 00:00:00 | 00:00:00 | |
| EA3GEO | 2026-09-01 00:43:32 | 41.60634 | 3.09150 | 88° | 73km/h | 7674m | -7.6m/s | 0°C | 0% | 0hPa | 0V | 00:00:00 | 00:00:00 | 00:00:00 | |
| EA3GEO | 2026-09-01 00:43:26 | 41.60632 | 3.09001 | 90° | 73km/h | 7733m | -10.1m/s | 0°C | 0% | 0hPa | 0V | 00:00:00 | 00:00:00 | 00:00:00 | |
| EA3GEO | 2026-09-01 00:43:19 | 41.60635 | 3.08822 | 94° | 78km/h | 7807m | -8.9m/s | 0°C | 0% | 0hPa | 0V | 00:00:00 | 00:00:00 | 00:00:00 | |
| EA3GEO | 2026-09-01 00:43:13 | 41.60639 | 3.08665 | 96° | 80km/h | 7868m | -10.0m/s | 0°C | 0% | 0hPa | 0V | 00:00:00 | 00:00:00 | 00:00:00 | |
| EA3GEO | 2026-09-01 00:43:06 | 41.60646 | 3.08476 | 96° | 80km/h | 7936m | -7.5m/s | 0°C | 0% | 0hPa | 0V | 00:00:00 | 00:00:00 | 00:00:00 | |
| EA3GEO | 2026-09-01 00:43:00 | 41.60657 | 3.08314 | 97° | 78km/h | 7996m | -7.4m/s | 0°C | 0% | 0hPa | 0V | 00:00:00 | 00:00:00 | 00:00:00 | |
| EA3GEO | 2026-09-01 00:42:55 | 41.60666 | 3.08178 | 93° | 78km/h | 8044m | -8.4m/s | 0°C | 0% | 0hPa | 0V | 00:00:00 | 00:00:00 | 00:00:00 | |
| EA3GEO | 2026-09-01 00:42:49 | 41.60676 | 3.08015 | 96° | 84km/h | 8097m | -7.2m/s | 0°C | 0% | 0hPa | 0V | 00:00:00 | 00:00:00 | 00:00:00 | |
| EA3GEO | 2026-09-01 00:42:48 | 41.60686 | 3.07879 | 94° | 80km/h | 8144m | -9.8m/s | 0°C | 0% | 0hPa | 0V | 00:00:00 | 00:00:00 | 00:00:00 | |
| EA3GEO | 2026-09-01 00:42:47 | 41.60696 | 3.07720 | 96° | 80km/h | 8201m | -9.1m/s | 0°C | 0% | 0hPa | 0V | 00:00:00 | 00:00:00 | 00:00:00 | |
| EA3GEO | 2026-09-01 00:42:33 | 41.60703 | 3.07586 | 95° | 78km/h | 8253m | -9.6m/s | 0°C | 0% | 0hPa | 0V | 00:00:00 | 00:00:00 | 00:00:00 | |
| EA3GEO | 2026-09-01 00:42:28 | 41.60708 | 3.07456 | 93° | 78km/h | 8295m | -8.7m/s | 0°C | 0% | 0hPa | 0V | 00:00:00 | 00:00:00 | 00:00:00 | |
| EA3GEO | 2026-09-01 00:42:21 | 41.60715 | 3.07278 | 92° | 77km/h | 8365m | -9.3m/s | 0°C | 0% | 0hPa | 0V | 00:00:00 | 00:00:00 | 00:00:00 | |
| EA3GEO | 2026-09-01 00:42:15 | 41.60717 | 3.07126 | 93° | 75km/h | 8426m | -8.3m/s | 0°C | 0% | 0hPa | 0V | 00:00:00 | 00:00:00 | 00:00:00 | |
| EA3GEO | 2026-09-01 00:42:09 | 41.60717 | 3.06977 | 89° | 71km/h | 8483m | -7.0m/s | 0°C | 0% | 0hPa | 0V | 00:00:00 | 00:00:00 | 00:00:00 | |
| EA3GEO | 2026-09-01 00:42:04 | 41.60714 | 3.06853 | 86° | 73km/h | 8534m | -8.6m/s | 0°C | 0% | 0hPa | 0V | 00:00:00 | 00:00:00 | 00:00:00 | |
| EA3GEO | 2026-09-01 00:41:58 | 41.60707 | 3.06702 | 86° | 77km/h | 8597m | -12.0m/s | 0°C | 0% | 0hPa | 0V | 00:00:00 | 00:00:00 | 00:00:00 | |
| EA3GEO | 2026-09-01 00:41:52 | 41.60699 | 3.06553 | 87° | 75km/h | 8653m | -9.2m/s | 0°C | 0% | 0hPa | 0V | 00:00:00 | 00:00:00 | 00:00:00 | |
| EA3GEO | 2026-09-01 00:41:46 | 41.60690 | 3.06401 | 85° | 78km/h | 8716m | -10.2m/s | 0°C | 0% | 0hPa | 0V | 00:00:00 | 00:00:00 | 00:00:00 | |
| EA3GEO | 2026-09-01 00:41:40 | 41.60679 | 3.06247 | 89° | 78km/h | 8778m | -8.5m/s | 0°C | 0% | 0hPa | 0V | 00:00:00 | 00:00:00 | 00:00:00 | |
| EA3GEO | 2026-09-01 00:41:16 | 41.60623 | 3.05608 | 85° | 80km/h | 9027m | -10.1m/s | 0°C | 0% | 0hPa | 0V | 00:00:00 | 00:00:00 | 00:00:00 | |
| EA3GEO | 2026-09-01 00:41:07 | 41.60595 | 3.05365 | 81° | 78km/h | 9117m | -7.7m/s | 0°C | 0% | 0hPa | 0V | 00:00:00 | 00:00:00 | 00:00:00 | |
| EA3GEO | 2026-09-01 00:41:00 | 41.60572 | 3.05179 | 82° | 77km/h | 9184m | -10.6m/s | 0°C | 0% | 0hPa | 0V | 00:00:00 | 00:00:00 | 00:00:00 | |
| EA3GEO | 2026-09-01 00:40:54 | 41.60550 | 3.05017 | 79° | 77km/h | 9245m | -8.1m/s | 0°C | 0% | 0hPa | 0V | 00:00:00 | 00:00:00 | 00:00:00 | |
| EA3GEO | 2026-09-01 00:40:48 | 41.60525 | 3.04865 | 81° | 71km/h | 9301m | -4.4m/s | 0°C | 0% | 0hPa | 0V | 00:00:00 | 00:00:00 | 00:00:00 | |
| EA3GEO | 2026-09-01 00:40:43 | 41.60501 | 3.04747 | 74° | 71km/h | 9348m | -10.2m/s | 0°C | 0% | 0hPa | 0V | 00:00:00 | 00:00:00 | 00:00:00 | |
| EA3GEO | 2026-09-01 00:40:37 | 41.60469 | 3.04604 | 70° | 73km/h | 9411m | -11.1m/s | 0°C | 0% | 0hPa | 0V | 00:00:00 | 00:00:00 | 00:00:00 | |
| EA3GEO | 2026-09-01 00:40:31 | 41.60434 | 3.04463 | 74° | 73km/h | 9474m | -8.0m/s | 0°C | 0% | 0hPa | 0V | 00:00:00 | 00:00:00 | 00:00:00 | |
| EA3GEO | 2026-09-01 00:40:23 | 41.60388 | 3.04271 | 73° | 73km/h | 9561m | -9.6m/s | 0°C | 0% | 0hPa | 0V | 00:00:00 | 00:00:00 | 00:00:00 | |
| EA3GEO | 2026-09-01 00:40:18 | 41.60362 | 3.04149 | 75° | 75km/h | 9609m | -10.4m/s | 0°C | 0% | 0hPa | 0V | 00:00:00 | 00:00:00 | 00:00:00 | |
| EA3GEO | 2026-09-01 00:40:12 | 41.60330 | 3.04005 | 75° | 71km/h | 9674m | -8.9m/s | 0°C | 0% | 0hPa | 0V | 00:00:00 | 00:00:00 | 00:00:00 | |
| EA3GEO | 2026-09-01 00:40:06 | 41.60300 | 3.03863 | 75° | 73km/h | 9735m | -8.6m/s | 0°C | 0% | 0hPa | 0V | 00:00:00 | 00:00:00 | 00:00:00 | |
| EA3GEO | 2026-09-01 00:40:00 | 41.60269 | 3.03719 | 78° | 77km/h | 9790m | -9.6m/s | 0°C | 0% | 0hPa | 0V | 00:00:00 | 00:00:00 | 00:00:00 | |
| EA3GEO | 2026-09-01 00:39:55 | 41.60244 | 3.03594 | 77° | 77km/h | 9848m | -9.1m/s | 0°C | 0% | 0hPa | 0V | 00:00:00 | 00:00:00 | 00:00:00 | |
| EA3GEO | 2026-09-01 00:39:50 | 41.60220 | 3.03468 | 76° | 75km/h | 9891m | -7.7m/s | 0°C | 0% | 0hPa | 0V | 00:00:00 | 00:00:00 | 00:00:00 | |
| EA3GEO | 2026-09-01 00:39:44 | 41.60188 | 3.03316 | 73° | 80km/h | 9954m | -5.9m/s | 0°C | 0% | 0hPa | 0V | 00:00:00 | 00:00:00 | 00:00:00 | |
| EA3GEO | 2026-09-01 00:39:39 | 41.60159 | 3.03188 | 76° | 80km/h | 10000m | -6.8m/s | 0°C | 0% | 0hPa | 0V | 00:00:00 | 00:00:00 | 00:00:00 | |
| EA3GEO | 2026-09-01 00:39:33 | 41.60126 | 3.03029 | 76° | 84km/h | 10058m | -9.6m/s | 0°C | 0% | 0hPa | 0V | 00:00:00 | 00:00:00 | 00:00:00 | |
| EA3GEO | 2026-09-01 00:39:27 | 41.60090 | 3.02868 | 72° | 82km/h | 10114m | -10.5m/s | 0°C | 0% | 0hPa | 0V | 00:00:00 | 00:00:00 | 00:00:00 | |
| EA3GEO | 2026-09-01 00:39:21 | 41.60050 | 3.02712 | 69° | 82km/h | 10173m | -8.2m/s | 0°C | 0% | 0hPa | 0V | 00:00:00 | 00:00:00 | 00:00:00 | |
| EA3GEO | 2026-09-01 00:39:16 | 41.60012 | 3.02582 | 71° | 82km/h | 10226m | -6.2m/s | 0°C | 0% | 0hPa | 0V | 00:00:00 | 00:00:00 | 00:00:00 | |
| EA3GEO | 2026-09-01 00:39:11 | 41.59974 | 3.02457 | 67° | 80km/h | 10272m | -8.4m/s | 0°C | 0% | 0hPa | 0V | 00:00:00 | 00:00:00 | 00:00:00 | |
| EA3GEO | 2026-09-01 00:39:05 | 41.59925 | 3.02306 | 71° | 86km/h | 10328m | -8.7m/s | 0°C | 0% | 0hPa | 0V | 00:00:00 | 00:00:00 | 00:00:00 | |
| EA3GEO | 2026-09-01 00:39:00 | 41.59886 | 3.02174 | 71° | 82km/h | 10381m | -6.1m/s | 0°C | 0% | 0hPa | 0V | 00:00:00 | 00:00:00 | 00:00:00 | |
| EA3GEO | 2026-09-01 00:38:54 | 41.59840 | 3.02015 | 69° | 82km/h | 10433m | -6.5m/s | 0°C | 0% | 0hPa | 0V | 00:00:00 | 00:00:00 | 00:00:00 | |
| EA3GEO | 2026-09-01 00:38:47 | 41.59782 | 3.01829 | 66° | 84km/h | 10499m | -8.6m/s | 0°C | 0% | 0hPa | 0V | 00:00:00 | 00:00:00 | 00:00:00 | |
| EA3GEO | 2026-09-01 00:38:42 | 41.59738 | 3.01695 | 69° | 86km/h | 10549m | -8.0m/s | 0°C | 0% | 0hPa | 0V | 00:00:00 | 00:00:00 | 00:00:00 | |
| EA3GEO | 2026-09-01 00:38:35 | 41.59673 | 3.01501 | 66° | 89km/h | 10610m | -7.5m/s | 0°C | 0% | 0hPa | 0V | 00:00:00 | 00:00:00 | 00:00:00 | |
| EA3GEO | 2026-09-01 00:38:28 | 41.59601 | 3.01302 | 63° | 91km/h | 10679m | -9.2m/s | 0°C | 0% | 0hPa | 0V | 00:00:00 | 00:00:00 | 00:00:00 | |
| EA3GEO | 2026-09-01 00:38:22 | 41.59540 | 3.01132 | 67° | 95km/h | 10746m | -7.4m/s | 0°C | 0% | 0hPa | 0V | 00:00:00 | 00:00:00 | 00:00:00 | |
| EA3GEO | 2026-09-01 00:38:16 | 41.59478 | 3.00956 | 66° | 99km/h | 10799m | -8.8m/s | 0°C | 0% | 0hPa | 0V | 00:00:00 | 00:00:00 | 00:00:00 | |
| EA3GEO | 2026-09-01 00:38:10 | 41.59419 | 3.00779 | 65° | 95km/h | 10854m | -8.1m/s | 0°C | 0% | 0hPa | 0V | 00:00:00 | 00:00:00 | 00:00:00 | |
| EA3GEO | 2026-09-01 00:38:04 | 41.59362 | 3.00598 | 69° | 99km/h | 10911m | -6.5m/s | 0°C | 0% | 0hPa | 0V | 00:00:00 | 00:00:00 | 00:00:00 | |
| EA3GEO | 2026-09-01 00:37:58 | 41.59303 | 3.00420 | 69° | 95km/h | 10973m | -7.9m/s | 0°C | 0% | 0hPa | 0V | 00:00:00 | 00:00:00 | 00:00:00 | |
| EA3GEO | 2026-09-01 00:37:53 | 41.59257 | 3.00269 | 68° | 99km/h | 11018m | -6.6m/s | 0°C | 0% | 0hPa | 0V | 00:00:00 | 00:00:00 | 00:00:00 | |
| EA3GEO | 2026-09-01 00:37:37 | 41.59106 | 2.99800 | 70° | 93km/h | 11172m | -10.2m/s | 0°C | 0% | 0hPa | 0V | 00:00:00 | 00:00:00 | 00:00:00 | |
| EA3GEO | 2026-09-01 00:37:30 | 41.59042 | 2.99599 | 68° | 93km/h | 11239m | -8.5m/s | 0°C | 0% | 0hPa | 0V | 00:00:00 | 00:00:00 | 00:00:00 | |
| EA3GEO | 2026-09-01 00:37:20 | 41.58947 | 2.99311 | 69° | 95km/h | 11337m | -8.2m/s | 0°C | 0% | 0hPa | 0V | 00:00:00 | 00:00:00 | 00:00:00 | |
| EA3GEO | 2026-09-01 00:37:01 | 41.58758 | 2.98745 | 67° | 97km/h | 11525m | -8.2m/s | 0°C | 0% | 0hPa | 0V | 00:00:00 | 00:00:00 | 00:00:00 | |
| EA3GEO | 2026-09-01 00:36:53 | 41.58675 | 2.98510 | 65° | 97km/h | 11587m | -6.7m/s | 0°C | 0% | 0hPa | 0V | 00:00:00 | 00:00:00 | 00:00:00 | |
| EA3GEO | 2026-09-01 00:36:42 | 41.58554 | 2.98191 | 64° | 95km/h | 11685m | -6.1m/s | 0°C | 0% | 0hPa | 0V | 00:00:00 | 00:00:00 | 00:00:00 | |
| EA3GEO | 2026-09-01 00:36:35 | 41.58471 | 2.97994 | 64° | 97km/h | 11749m | -9.1m/s | 0°C | 0% | 0hPa | 0V | 00:00:00 | 00:00:00 | 00:00:00 | |
| EA3GEO | 2026-09-01 00:36:26 | 41.58366 | 2.97737 | 60° | 99km/h | 11839m | -5.9m/s | 0°C | 0% | 0hPa | 0V | 00:00:00 | 00:00:00 | 00:00:00 | |
| EA3GEO | 2026-09-01 00:36:19 | 41.58278 | 2.97535 | 60° | 99km/h | 11906m | -10.8m/s | 0°C | 0% | 0hPa | 0V | 00:00:00 | 00:00:00 | 00:00:00 | |
| EA3GEO | 2026-09-01 00:36:04 | 41.58075 | 2.97090 | 61° | 106km/h | 12071m | -10.4m/s | 0°C | 0% | 0hPa | 0V | 00:00:00 | 00:00:00 | 00:00:00 | |
| EA3GEO | 2026-09-01 00:35:58 | 41.57992 | 2.96912 | 59° | 102km/h | 12131m | -8.2m/s | 0°C | 0% | 0hPa | 0V | 00:00:00 | 00:00:00 | 00:00:00 | |
| EA3GEO | 2026-09-01 00:35:52 | 41.57908 | 2.96736 | 58° | 102km/h | 12183m | -9.0m/s | 0°C | 0% | 0hPa | 0V | 00:00:00 | 00:00:00 | 00:00:00 | |
| EA3GEO | 2026-09-01 00:35:46 | 41.57823 | 2.96563 | 57° | 100km/h | 12243m | -8.9m/s | 0°C | 0% | 0hPa | 0V | 00:00:00 | 00:00:00 | 00:00:00 | |
| EA3GEO | 2026-09-01 00:35:41 | 41.57755 | 2.96421 | 61° | 97km/h | 12292m | -7.7m/s | 0°C | 0% | 0hPa | 0V | 00:00:00 | 00:00:00 | 00:00:00 | |
| EA3GEO | 2026-09-01 00:35:34 | 41.57667 | 2.96218 | 62° | 100km/h | 12368m | -9.3m/s | 0°C | 0% | 0hPa | 0V | 00:00:00 | 00:00:00 | 00:00:00 | |
| EA3GEO | 2026-09-01 00:35:28 | 41.57591 | 2.96047 | 59° | 97km/h | 12422m | -13.2m/s | 0°C | 0% | 0hPa | 0V | 00:00:00 | 00:00:00 | 00:00:00 | |
| EA3GEO | 2026-09-01 00:35:23 | 41.57527 | 2.95904 | 58° | 97km/h | 12487m | -11.6m/s | 0°C | 0% | 0hPa | 0V | 00:00:00 | 00:00:00 | 00:00:00 | |
| EA3GEO | 2026-09-01 00:35:17 | 41.57445 | 2.95740 | 59° | 97km/h | 12563m | -12.6m/s | 0°C | 0% | 0hPa | 0V | 00:00:00 | 00:00:00 | 00:00:00 | |
| EA3GEO | 2026-09-01 00:35:11 | 41.57369 | 2.95568 | 62° | 99km/h | 12647m | -12.2m/s | 0°C | 0% | 0hPa | 0V | 00:00:00 | 00:00:00 | 00:00:00 | |
| EA3GEO | 2026-09-01 00:35:05 | 41.57294 | 2.95390 | 62° | 102km/h | 12727m | -12.8m/s | 0°C | 0% | 0hPa | 0V | 00:00:00 | 00:00:00 | 00:00:00 | |
| EA3GEO | 2026-09-01 00:34:59 | 41.57220 | 2.95206 | 61° | 102km/h | 12801m | -9.8m/s | 0°C | 0% | 0hPa | 0V | 00:00:00 | 00:00:00 | 00:00:00 | |
| EA3GEO | 2026-09-01 00:34:43 | 41.57020 | 2.94720 | 63° | 100km/h | 12948m | -9.2m/s | 0°C | 0% | 0hPa | 0V | 00:00:00 | 00:00:00 | 00:00:00 | |
| EA3GEO | 2026-09-01 00:34:35 | 41.56920 | 2.94475 | 64° | 102km/h | 13022m | -6.4m/s | 0°C | 0% | 0hPa | 0V | 00:00:00 | 00:00:00 | 00:00:00 | |
| EA3GEO | 2026-09-01 00:34:27 | 41.56820 | 2.94233 | 62° | 102km/h | 13078m | -5.9m/s | 0°C | 0% | 0hPa | 0V | 00:00:00 | 00:00:00 | 00:00:00 | |
| EA3GEO | 2026-09-01 00:34:15 | 41.56675 | 2.93873 | 64° | 99km/h | 13180m | -8.0m/s | 0°C | 0% | 0hPa | 0V | 00:00:00 | 00:00:00 | 00:00:00 | |
| EA3GEO | 2026-09-01 00:33:43 | 41.56321 | 2.92913 | 72° | 95km/h | 13507m | -10.2m/s | 0°C | 0% | 0hPa | 0V | 00:00:00 | 00:00:00 | 00:00:00 | |
| EA3GEO | 2026-09-01 00:33:36 | 41.56264 | 2.92703 | 70° | 95km/h | 13582m | -12.4m/s | 0°C | 0% | 0hPa | 0V | 00:00:00 | 00:00:00 | 00:00:00 | |
| EA3GEO | 2026-09-01 00:33:17 | 41.56100 | 2.92138 | 77° | 89km/h | 13867m | -14.2m/s | 0°C | 0% | 0hPa | 0V | 00:00:00 | 00:00:00 | 00:00:00 | |
| EA3GEO | 2026-09-01 00:33:06 | 41.56042 | 2.91856 | 73° | 88km/h | 14014m | -14.2m/s | 0°C | 0% | 0hPa | 0V | 00:00:00 | 00:00:00 | 00:00:00 | |
| EA3GEO | 2026-09-01 00:31:32 | 41.55710 | 2.89654 | 80° | 58km/h | 15165m | -7.4m/s | 0°C | 0% | 0hPa | 0V | 00:00:00 | 00:00:00 | 00:00:00 | |
| EA3GEO | 2026-09-01 00:31:26 | 41.55695 | 2.89540 | 82° | 57km/h | 15199m | -5.4m/s | 0°C | 0% | 0hPa | 0V | 00:00:00 | 00:00:00 | 00:00:00 | |
| EA3GEO | 2026-09-01 00:31:20 | 41.55681 | 2.89427 | 80° | 55km/h | 15232m | -5.2m/s | 0°C | 0% | 0hPa | 0V | 00:00:00 | 00:00:00 | 00:00:00 | |
| EA3GEO | 2026-09-01 00:31:14 | 41.55668 | 2.89317 | 83° | 55km/h | 15263m | -5.8m/s | 0°C | 0% | 0hPa | 0V | 00:00:00 | 00:00:00 | 00:00:00 | |
| EA3GEO | 2026-09-01 00:31:03 | 41.55645 | 2.89134 | 81° | 44km/h | 15331m | -4.5m/s | 0°C | 0% | 0hPa | 0V | 00:00:00 | 00:00:00 | 00:00:00 | |
| EA3GEO | 2026-09-01 00:30:57 | 41.55630 | 2.89040 | 74° | 51km/h | 15374m | -10.5m/s | 0°C | 0% | 0hPa | 0V | 00:00:00 | 00:00:00 | 00:00:00 | |
| EA3GEO | 2026-09-01 00:17:34 | 41.54802 | 2.85426 | 17° | 2km/h | 22561m | 5.6m/s | 0°C | 0% | 0hPa | 0V | 00:00:00 | 00:00:00 | 00:00:00 | |
| EA3GEO | 2026-09-01 00:17:25 | 41.54802 | 2.85454 | 21° | 7km/h | 22516m | 5.9m/s | 0°C | 0% | 0hPa | 0V | 00:00:00 | 00:00:00 | 00:00:00 | |
| EA3GEO | 2026-09-01 00:17:20 | 41.54788 | 2.85445 | 46° | 9km/h | 22489m | 4.7m/s | 0°C | 0% | 0hPa | 0V | 00:00:00 | 00:00:00 | 00:00:00 | |
| EA3GEO | 2026-09-01 00:12:16 | 41.54458 | 2.85424 | 51° | 9km/h | 20919m | 4.7m/s | 0°C | 0% | 0hPa | 0V | 00:00:00 | 00:00:00 | 00:00:00 | |
| EA3GEO | 2026-09-01 00:11:40 | 41.54456 | 2.85453 | 254° | 22km/h | 20743m | 4.4m/s | 0°C | 0% | 0hPa | 0V | 00:00:00 | 00:00:00 | 00:00:00 | |
| EA3GEO | 2026-09-01 00:11:19 | 41.54504 | 2.85523 | 222° | 15km/h | 20643m | 4.8m/s | 0°C | 0% | 0hPa | 0V | 00:00:00 | 00:00:00 | 00:00:00 | |
| EA3GEO | 2026-09-01 00:11:10 | 41.54527 | 2.85557 | 173° | 22km/h | 20598m | 5.3m/s | 0°C | 0% | 0hPa | 0V | 00:00:00 | 00:00:00 | 00:00:00 | |
| EA3GEO | 2026-09-01 00:11:03 | 41.54542 | 2.85560 | 300° | 5km/h | 20565m | 5.2m/s | 0°C | 0% | 0hPa | 0V | 00:00:00 | 00:00:00 | 00:00:00 | |
| EA3GEO | 2026-09-01 00:10:57 | 41.54554 | 2.85561 | 144° | 13km/h | 20536m | 4.9m/s | 0°C | 0% | 0hPa | 0V | 00:00:00 | 00:00:00 | 00:00:00 | |
| EA3GEO | 2026-09-01 00:10:49 | 41.54556 | 2.85564 | 112° | 11km/h | 20500m | 4.8m/s | 0°C | 0% | 0hPa | 0V | 00:00:00 | 00:00:00 | 00:00:00 | |
| EA3GEO | 2026-09-01 00:10:44 | 41.54565 | 2.85551 | 103° | 5km/h | 20475m | 4.6m/s | 0°C | 0% | 0hPa | 0V | 00:00:00 | 00:00:00 | 00:00:00 | |
| EA3GEO | 2026-09-01 00:10:37 | 41.54561 | 2.85540 | 113° | 9km/h | 20441m | 5.0m/s | 0°C | 0% | 0hPa | 0V | 00:00:00 | 00:00:00 | 00:00:00 | |
| EA3GEO | 2026-09-01 00:10:31 | 41.54560 | 2.85533 | 283° | 5km/h | 20412m | 3.4m/s | 0°C | 0% | 0hPa | 0V | 00:00:00 | 00:00:00 | 00:00:00 | |
| EA3GEO | 2026-09-01 00:10:25 | 41.54554 | 2.85526 | 63° | 5km/h | 20383m | 4.9m/s | 0°C | 0% | 0hPa | 0V | 00:00:00 | 00:00:00 | 00:00:00 | |
| EA3GEO | 2026-09-01 00:10:18 | 41.54542 | 2.85526 | 52° | 9km/h | 20349m | 4.4m/s | 0°C | 0% | 0hPa | 0V | 00:00:00 | 00:00:00 | 00:00:00 | |
| EA3GEO | 2026-09-01 00:09:12 | 41.54601 | 2.85592 | 181° | 15km/h | 20021m | 5.5m/s | 0°C | 0% | 0hPa | 0V | 00:00:00 | 00:00:00 | 00:00:00 | |
| EA3GEO | 2026-09-01 00:09:05 | 41.54627 | 2.85597 | 183° | 11km/h | 19987m | 5.1m/s | 0°C | 0% | 0hPa | 0V | 00:00:00 | 00:00:00 | 00:00:00 | |
| EA3GEO | 2026-09-01 00:08:59 | 41.54638 | 2.85598 | 201° | 9km/h | 19956m | 5.9m/s | 0°C | 0% | 0hPa | 0V | 00:00:00 | 00:00:00 | 00:00:00 | |
| EA3GEO | 2026-09-01 00:08:52 | 41.54652 | 2.85607 | 217° | 5km/h | 19921m | 4.8m/s | 0°C | 0% | 0hPa | 0V | 00:00:00 | 00:00:00 | 00:00:00 | |
| EA3GEO | 2026-09-01 00:08:43 | 41.54663 | 2.85585 | 148° | 15km/h | 19876m | 5.4m/s | 0°C | 0% | 0hPa | 0V | 00:00:00 | 00:00:00 | 00:00:00 | |
| EA3GEO | 2026-09-01 00:08:37 | 41.54670 | 2.85580 | 172° | 4km/h | 19846m | 5.3m/s | 0°C | 0% | 0hPa | 0V | 00:00:00 | 00:00:00 | 00:00:00 | |
| EA3GEO | 2026-09-01 00:08:32 | 41.54680 | 2.85573 | 0° | 0km/h | 19821m | 5.6m/s | 0°C | 0% | 0hPa | 0V | 00:00:00 | 00:00:00 | 00:00:00 | |
| EA3GEO | 2026-09-01 00:08:13 | 41.54669 | 2.85560 | 37° | 9km/h | 19729m | 6.0m/s | 0°C | 0% | 0hPa | 0V | 00:00:00 | 00:00:00 | 00:00:00 | |
| EA3GEO | 2026-09-01 00:08:08 | 41.54669 | 2.85568 | 229° | 9km/h | 19703m | 6.4m/s | 0°C | 0% | 0hPa | 0V | 00:00:00 | 00:00:00 | 00:00:00 | |
| EA3GEO | 2026-09-01 00:08:02 | 41.54667 | 2.85561 | 92° | 9km/h | 19672m | 3.3m/s | 0°C | 0% | 0hPa | 0V | 00:00:00 | 00:00:00 | 00:00:00 | |
| EA3GEO | 2026-09-01 00:07:18 | 41.54771 | 2.85473 | 115° | 27km/h | 19449m | 6.2m/s | 0°C | 0% | 0hPa | 0V | 00:00:00 | 00:00:00 | 00:00:00 | |
| EA3GEO | 2026-09-01 00:07:13 | 41.54782 | 2.85433 | 110° | 24km/h | 19424m | 6.1m/s | 0°C | 0% | 0hPa | 0V | 00:00:00 | 00:00:00 | 00:00:00 | |
| EA3GEO | 2026-09-01 00:07:07 | 41.54797 | 2.85381 | 115° | 26km/h | 19394m | 4.1m/s | 0°C | 0% | 0hPa | 0V | 00:00:00 | 00:00:00 | 00:00:00 | |
| EA3GEO | 2026-09-01 00:07:01 | 41.54804 | 2.85346 | 96° | 31km/h | 19365m | 3.5m/s | 0°C | 0% | 0hPa | 0V | 00:00:00 | 00:00:00 | 00:00:00 | |
| EA3GEO | 2026-09-01 00:06:55 | 41.54801 | 2.85280 | 93° | 24km/h | 19335m | 4.4m/s | 0°C | 0% | 0hPa | 0V | 00:00:00 | 00:00:00 | 00:00:00 | |
| EA3GEO | 2026-09-01 00:06:49 | 41.54790 | 2.85226 | 72° | 37km/h | 19307m | 5.0m/s | 0°C | 0% | 0hPa | 0V | 00:00:00 | 00:00:00 | 00:00:00 | |
| EA3GEO | 2026-09-01 00:06:43 | 41.54772 | 2.85178 | 53° | 20km/h | 19276m | 5.6m/s | 0°C | 0% | 0hPa | 0V | 00:00:00 | 00:00:00 | 00:00:00 | |
| EA3GEO | 2026-09-01 00:06:37 | 41.54748 | 2.85129 | 53° | 38km/h | 19247m | 5.5m/s | 0°C | 0% | 0hPa | 0V | 00:00:00 | 00:00:00 | 00:00:00 | |
| EA3GEO | 2026-09-01 00:05:10 | 41.54797 | 2.84668 | 135° | 29km/h | 18833m | 4.5m/s | 0°C | 0% | 0hPa | 0V | 00:00:00 | 00:00:00 | 00:00:00 | |
| EA3GEO | 2026-09-01 00:04:53 | 41.54907 | 2.84552 | 134° | 31km/h | 18746m | 5.7m/s | 0°C | 0% | 0hPa | 0V | 00:00:00 | 00:00:00 | 00:00:00 | |
| EA3GEO | 2026-09-01 00:04:48 | 41.54957 | 2.84505 | 151° | 35km/h | 18713m | 3.4m/s | 0°C | 0% | 0hPa | 0V | 00:00:00 | 00:00:00 | 00:00:00 | |
| EA3GEO | 2026-09-01 00:04:40 | 41.54990 | 2.84457 | 125° | 35km/h | 18688m | 4.5m/s | 0°C | 0% | 0hPa | 0V | 00:00:00 | 00:00:00 | 00:00:00 | |
| EA3GEO | 2026-09-01 00:04:33 | 41.55051 | 2.84391 | 124° | 49km/h | 18650m | 6.2m/s | 0°C | 0% | 0hPa | 0V | 00:00:00 | 00:00:00 | 00:00:00 | |
| EA3GEO | 2026-09-01 00:04:28 | 41.55085 | 2.84327 | 145° | 44km/h | 18627m | 4.5m/s | 0°C | 0% | 0hPa | 0V | 00:00:00 | 00:00:00 | 00:00:00 | |
| EA3GEO | 2026-09-01 00:04:22 | 41.55120 | 2.84271 | 108° | 38km/h | 18603m | 5.6m/s | 0°C | 0% | 0hPa | 0V | 00:00:00 | 00:00:00 | 00:00:00 | |
| EA3GEO | 2026-09-01 00:04:12 | 41.55179 | 2.84122 | 117° | 55km/h | 18553m | 5.3m/s | 0°C | 0% | 0hPa | 0V | 00:00:00 | 00:00:00 | 00:00:00 | |
| EA3GEO | 2026-09-01 00:04:02 | 41.55240 | 2.83927 | 109° | 62km/h | 18499m | 4.7m/s | 0°C | 0% | 0hPa | 0V | 00:00:00 | 00:00:00 | 00:00:00 | |
| EA3GEO | 2026-09-01 00:03:55 | 41.55268 | 2.83799 | 103° | 69km/h | 18471m | 3.4m/s | 0°C | 0% | 0hPa | 0V | 00:00:00 | 00:00:00 | 00:00:00 | |
| EA3GEO | 2026-09-01 00:03:51 | 41.55293 | 2.83661 | 107° | 71km/h | 18438m | 5.7m/s | 0°C | 0% | 0hPa | 0V | 00:00:00 | 00:00:00 | 00:00:00 | |
| EA3GEO | 2026-09-01 00:03:44 | 41.55318 | 2.83492 | 95° | 53km/h | 18401m | 3.7m/s | 0°C | 0% | 0hPa | 0V | 00:00:00 | 00:00:00 | 00:00:00 | |
| EA3GEO | 2026-09-01 00:03:42 | 41.55334 | 2.83389 | 102° | 68km/h | 18379m | 5.0m/s | 0°C | 0% | 0hPa | 0V | 00:00:00 | 00:00:00 | 00:00:00 | |
| EA3GEO | 2026-09-01 00:03:39 | 41.55343 | 2.83264 | 92° | 55km/h | 18351m | 4.4m/s | 0°C | 0% | 0hPa | 0V | 00:00:00 | 00:00:00 | 00:00:00 | |
| EA3GEO | 2026-09-01 00:03:37 | 41.55346 | 2.83156 | 91° | 66km/h | 18329m | 4.8m/s | 0°C | 0% | 0hPa | 0V | 00:00:00 | 00:00:00 | 00:00:00 | |
| EA3GEO | 2026-09-01 00:03:34 | 41.55351 | 2.83045 | 98° | 64km/h | 18306m | 5.3m/s | 0°C | 0% | 0hPa | 0V | 00:00:00 | 00:00:00 | 00:00:00 | |
| EA3GEO | 2026-09-01 00:03:30 | 41.55351 | 2.82924 | 85° | 58km/h | 18276m | 4.7m/s | 0°C | 0% | 0hPa | 0V | 00:00:00 | 00:00:00 | 00:00:00 | |
| EA3GEO | 2026-09-01 00:03:26 | 41.55349 | 2.82794 | 83° | 60km/h | 18250m | 4.4m/s | 0°C | 0% | 0hPa | 0V | 00:00:00 | 00:00:00 | 00:00:00 | |
| EA3GEO | 2026-09-01 00:03:22 | 41.55330 | 2.82669 | 84° | 58km/h | 18223m | 4.8m/s | 0°C | 0% | 0hPa | 0V | 00:00:00 | 00:00:00 | 00:00:00 | |
| EA3GEO | 2026-09-01 00:03:16 | 41.55322 | 2.82546 | 84° | 60km/h | 18195m | 3.5m/s | 0°C | 0% | 0hPa | 0V | 00:00:00 | 00:00:00 | 00:00:00 | |
| EA3GEO | 2026-09-01 00:03:12 | 41.55306 | 2.82439 | 81° | 60km/h | 18172m | 3.8m/s | 0°C | 0% | 0hPa | 0V | 00:00:00 | 00:00:00 | 00:00:00 | |
| EA3GEO | 2026-09-01 00:02:50 | 41.55267 | 2.82191 | 77° | 60km/h | 18119m | 5.0m/s | 0°C | 0% | 0hPa | 0V | 00:00:00 | 00:00:00 | 00:00:00 | |
| EA3GEO | 2026-09-01 00:02:45 | 41.55240 | 2.82069 | 70° | 68km/h | 18090m | 5.5m/s | 0°C | 0% | 0hPa | 0V | 00:00:00 | 00:00:00 | 00:00:00 | |
| EA3GEO | 2026-09-01 00:02:39 | 41.55211 | 2.81968 | 70° | 60km/h | 18066m | 5.8m/s | 0°C | 0% | 0hPa | 0V | 00:00:00 | 00:00:00 | 00:00:00 | |
| EA3GEO | 2026-09-01 00:02:27 | 41.55172 | 2.81856 | 62° | 68km/h | 18037m | 5.9m/s | 0°C | 0% | 0hPa | 0V | 00:00:00 | 00:00:00 | 00:00:00 | |
| EA3GEO | 2026-09-01 00:02:19 | 41.55120 | 2.81745 | 59° | 53km/h | 18005m | 6.5m/s | 0°C | 0% | 0hPa | 0V | 00:00:00 | 00:00:00 | 00:00:00 | |
| EA3GEO | 2026-09-01 00:02:13 | 41.55084 | 2.81665 | 58° | 64km/h | 17979m | 5.7m/s | 0°C | 0% | 0hPa | 0V | 00:00:00 | 00:00:00 | 00:00:00 | |
| EA3GEO | 2026-09-01 00:01:54 | 41.54919 | 2.81245 | 81° | 35km/h | 17813m | 5.5m/s | 0°C | 0% | 0hPa | 0V | 00:00:00 | 00:00:00 | 00:00:00 | |
| EA3GEO | 2026-09-01 00:01:31 | 41.54900 | 2.81076 | 95° | 29km/h | 17731m | 6.0m/s | 0°C | 0% | 0hPa | 0V | 00:00:00 | 00:00:00 | 00:00:00 | |
| EA3GEO | 2026-09-01 00:01:24 | 41.54905 | 2.81011 | 93° | 27km/h | 17702m | 4.4m/s | 0°C | 0% | 0hPa | 0V | 00:00:00 | 00:00:00 | 00:00:00 | |
| EA3GEO | 2026-09-01 00:01:16 | 41.54908 | 2.80947 | 102° | 31km/h | 17674m | 5.4m/s | 0°C | 0% | 0hPa | 0V | 00:00:00 | 00:00:00 | 00:00:00 | |
| EA3GEO | 2026-09-01 00:00:21 | 41.54921 | 2.80396 | 67° | 37km/h | 17405m | 5.0m/s | 0°C | 0% | 0hPa | 0V | 00:00:00 | 00:00:00 | 00:00:00 | |
| EA3GEO | 2026-09-01 00:00:10 | 41.54905 | 2.80337 | 74° | 31km/h | 17378m | 3.5m/s | 0°C | 0% | 0hPa | 0V | 00:00:00 | 00:00:00 | 00:00:00 | |
| EA3GEO | 2026-09-01 00:00:04 | 41.54893 | 2.80275 | 75° | 35km/h | 17355m | 4.3m/s | 0°C | 0% | 0hPa | 0V | 00:00:00 | 00:00:00 | 00:00:00 | |
| EA3GEO | 2026-08-31 23:59:58 | 41.54873 | 2.80199 | 67° | 38km/h | 17327m | 3.7m/s | 0°C | 0% | 0hPa | 0V | 00:00:00 | 00:00:00 | 00:00:00 | |
| EA3GEO | 2026-08-31 23:59:53 | 41.54858 | 2.80138 | 74° | 33km/h | 17305m | 5.5m/s | 0°C | 0% | 0hPa | 0V | 00:00:00 | 00:00:00 | 00:00:00 | |
| EA3GEO | 2026-08-31 23:59:47 | 41.54833 | 2.80066 | 61° | 40km/h | 17279m | 4.4m/s | 0°C | 0% | 0hPa | 0V | 00:00:00 | 00:00:00 | 00:00:00 | |
| EA3GEO | 2026-08-31 23:59:43 | 41.54821 | 2.80012 | 76° | 27km/h | 17257m | 5.1m/s | 0°C | 0% | 0hPa | 0V | 00:00:00 | 00:00:00 | 00:00:00 | |
| EA3GEO | 2026-08-31 23:59:36 | 41.54799 | 2.79942 | 68° | 35km/h | 17230m | 4.6m/s | 0°C | 0% | 0hPa | 0V | 00:00:00 | 00:00:00 | 00:00:00 | |
| EA3GEO | 2026-08-31 23:59:31 | 41.54791 | 2.79894 | 72° | 29km/h | 17209m | 4.9m/s | 0°C | 0% | 0hPa | 0V | 00:00:00 | 00:00:00 | 00:00:00 | |
| EA3GEO | 2026-08-31 23:59:25 | 41.54769 | 2.79837 | 72° | 31km/h | 17182m | 3.8m/s | 0°C | 0% | 0hPa | 0V | 00:00:00 | 00:00:00 | 00:00:00 | |
| EA3GEO | 2026-08-31 23:59:19 | 41.54756 | 2.79779 | 76° | 29km/h | 17154m | 5.2m/s | 0°C | 0% | 0hPa | 0V | 00:00:00 | 00:00:00 | 00:00:00 | |
| EA3GEO | 2026-08-31 23:59:14 | 41.54748 | 2.79733 | 80° | 26km/h | 17132m | 2.7m/s | 0°C | 0% | 0hPa | 0V | 00:00:00 | 00:00:00 | 00:00:00 | |
| EA3GEO | 2026-08-31 23:59:08 | 41.54750 | 2.79668 | 99° | 38km/h | 17103m | 4.8m/s | 0°C | 0% | 0hPa | 0V | 00:00:00 | 00:00:00 | 00:00:00 | |
| EA3GEO | 2026-08-31 23:59:02 | 41.54758 | 2.79602 | 106° | 40km/h | 17076m | 4.5m/s | 0°C | 0% | 0hPa | 0V | 00:00:00 | 00:00:00 | 00:00:00 | |
| EA3GEO | 2026-08-31 23:58:56 | 41.54769 | 2.79517 | 105° | 47km/h | 17048m | 4.5m/s | 0°C | 0% | 0hPa | 0V | 00:00:00 | 00:00:00 | 00:00:00 | |
| EA3GEO | 2026-08-31 23:58:51 | 41.54779 | 2.79435 | 99° | 55km/h | 17026m | 4.0m/s | 0°C | 0% | 0hPa | 0V | 00:00:00 | 00:00:00 | 00:00:00 | |
| EA3GEO | 2026-08-31 23:58:46 | 41.54786 | 2.79345 | 104° | 51km/h | 17004m | 4.7m/s | 0°C | 0% | 0hPa | 0V | 00:00:00 | 00:00:00 | 00:00:00 | |
| EA3GEO | 2026-08-31 23:58:40 | 41.54805 | 2.79254 | 104° | 47km/h | 16977m | 5.0m/s | 0°C | 0% | 0hPa | 0V | 00:00:00 | 00:00:00 | 00:00:00 | |
| EA3GEO | 2026-08-31 23:58:35 | 41.54814 | 2.79162 | 95° | 53km/h | 16955m | 4.4m/s | 0°C | 0% | 0hPa | 0V | 00:00:00 | 00:00:00 | 00:00:00 | |
| EA3GEO | 2026-08-31 23:58:29 | 41.54828 | 2.79066 | 96° | 49km/h | 16928m | 3.5m/s | 0°C | 0% | 0hPa | 0V | 00:00:00 | 00:00:00 | 00:00:00 | |
| EA3GEO | 2026-08-31 23:58:24 | 41.54831 | 2.78966 | 88° | 57km/h | 16905m | 3.5m/s | 0°C | 0% | 0hPa | 0V | 00:00:00 | 00:00:00 | 00:00:00 | |
| EA3GEO | 2026-08-31 23:58:18 | 41.54838 | 2.78860 | 96° | 55km/h | 16876m | 4.7m/s | 0°C | 0% | 0hPa | 0V | 00:00:00 | 00:00:00 | 00:00:00 | |
| EA3GEO | 2026-08-31 23:58:10 | 41.54843 | 2.78716 | 87° | 60km/h | 16837m | 5.9m/s | 0°C | 0% | 0hPa | 0V | 00:00:00 | 00:00:00 | 00:00:00 | |
| EA3GEO | 2026-08-31 23:58:04 | 41.54837 | 2.78600 | 84° | 55km/h | 16808m | 5.2m/s | 0°C | 0% | 0hPa | 0V | 00:00:00 | 00:00:00 | 00:00:00 | |
| EA3GEO | 2026-08-31 23:57:53 | 41.54807 | 2.78378 | 78° | 64km/h | 16755m | 5.2m/s | 0°C | 0% | 0hPa | 0V | 00:00:00 | 00:00:00 | 00:00:00 | |
| EA3GEO | 2026-08-31 23:57:45 | 41.54775 | 2.78210 | 71° | 62km/h | 16716m | 5.8m/s | 0°C | 0% | 0hPa | 0V | 00:00:00 | 00:00:00 | 00:00:00 | |
| EA3GEO | 2026-08-31 23:57:39 | 41.54747 | 2.78094 | 76° | 68km/h | 16686m | 4.7m/s | 0°C | 0% | 0hPa | 0V | 00:00:00 | 00:00:00 | 00:00:00 | |
| EA3GEO | 2026-08-31 23:57:33 | 41.54714 | 2.77973 | 69° | 53km/h | 16657m | 6.1m/s | 0°C | 0% | 0hPa | 0V | 00:00:00 | 00:00:00 | 00:00:00 | |
| EA3GEO | 2026-08-31 23:57:17 | 41.54620 | 2.77695 | 65° | 58km/h | 16581m | 4.8m/s | 0°C | 0% | 0hPa | 0V | 00:00:00 | 00:00:00 | 00:00:00 | |
| EA3GEO | 2026-08-31 23:57:01 | 41.54519 | 2.77433 | 61° | 53km/h | 16500m | 5.4m/s | 0°C | 0% | 0hPa | 0V | 00:00:00 | 00:00:00 | 00:00:00 | |
| EA3GEO | 2026-08-31 23:56:47 | 41.54417 | 2.77245 | 47° | 51km/h | 16432m | 4.5m/s | 0°C | 0% | 0hPa | 0V | 00:00:00 | 00:00:00 | 00:00:00 | |
| EA3GEO | 2026-08-31 23:56:41 | 41.54373 | 2.77162 | 51° | 44km/h | 16404m | 3.6m/s | 0°C | 0% | 0hPa | 0V | 00:00:00 | 00:00:00 | 00:00:00 | |
| EA3GEO | 2026-08-31 23:56:35 | 41.54328 | 2.77089 | 57° | 53km/h | 16375m | 5.6m/s | 0°C | 0% | 0hPa | 0V | 00:00:00 | 00:00:00 | 00:00:00 | |
| EA3GEO | 2026-08-31 23:56:30 | 41.54286 | 2.77025 | 39° | 42km/h | 16353m | 4.2m/s | 0°C | 0% | 0hPa | 0V | 00:00:00 | 00:00:00 | 00:00:00 | |
| EA3GEO | 2026-08-31 23:56:24 | 41.54242 | 2.76950 | 53° | 47km/h | 16324m | 5.1m/s | 0°C | 0% | 0hPa | 0V | 00:00:00 | 00:00:00 | 00:00:00 | |
| EA3GEO | 2026-08-31 23:56:19 | 41.54201 | 2.76890 | 48° | 46km/h | 16300m | 5.3m/s | 0°C | 0% | 0hPa | 0V | 00:00:00 | 00:00:00 | 00:00:00 | |
| EA3GEO | 2026-08-31 23:56:13 | 41.54160 | 2.76827 | 48° | 49km/h | 16269m | 6.6m/s | 0°C | 0% | 0hPa | 0V | 00:00:00 | 00:00:00 | 00:00:00 | |
| EA3GEO | 2026-08-31 23:56:06 | 41.54103 | 2.76753 | 46° | 37km/h | 16233m | 6.3m/s | 0°C | 0% | 0hPa | 0V | 00:00:00 | 00:00:00 | 00:00:00 | |
| EA3GEO | 2026-08-31 23:55:59 | 41.54043 | 2.76674 | 56° | 44km/h | 16200m | 5.4m/s | 0°C | 0% | 0hPa | 0V | 00:00:00 | 00:00:00 | 00:00:00 | |
| EA3GEO | 2026-08-31 23:55:53 | 41.54008 | 2.76608 | 63° | 42km/h | 16172m | 5.8m/s | 0°C | 0% | 0hPa | 0V | 00:00:00 | 00:00:00 | 00:00:00 | |
| EA3GEO | 2026-08-31 23:55:48 | 41.53979 | 2.76544 | 55° | 42km/h | 16149m | 4.8m/s | 0°C | 0% | 0hPa | 0V | 00:00:00 | 00:00:00 | 00:00:00 | |
| EA3GEO | 2026-08-31 23:55:42 | 41.53943 | 2.76462 | 63° | 49km/h | 16122m | 3.7m/s | 0°C | 0% | 0hPa | 0V | 00:00:00 | 00:00:00 | 00:00:00 | |
| EA3GEO | 2026-08-31 23:55:36 | 41.53921 | 2.76376 | 73° | 46km/h | 16094m | 5.3m/s | 0°C | 0% | 0hPa | 0V | 00:00:00 | 00:00:00 | 00:00:00 | |
| EA3GEO | 2026-08-31 23:55:28 | 41.53875 | 2.76251 | 72° | 46km/h | 16058m | 5.2m/s | 0°C | 0% | 0hPa | 0V | 00:00:00 | 00:00:00 | 00:00:00 | |
| EA3GEO | 2026-08-31 23:55:22 | 41.53843 | 2.76161 | 59° | 53km/h | 16031m | 4.5m/s | 0°C | 0% | 0hPa | 0V | 00:00:00 | 00:00:00 | 00:00:00 | |
| EA3GEO | 2026-08-31 23:55:11 | 41.53778 | 2.75995 | 64° | 49km/h | 15981m | 3.3m/s | 0°C | 0% | 0hPa | 0V | 00:00:00 | 00:00:00 | 00:00:00 | |
| EA3GEO | 2026-08-31 23:54:52 | 41.53675 | 2.75690 | 77° | 57km/h | 15892m | 4.7m/s | 0°C | 0% | 0hPa | 0V | 00:00:00 | 00:00:00 | 00:00:00 | |
| EA3GEO | 2026-08-31 23:54:40 | 41.53613 | 2.75483 | 69° | 66km/h | 15836m | 4.1m/s | 0°C | 0% | 0hPa | 0V | 00:00:00 | 00:00:00 | 00:00:00 | |
| EA3GEO | 2026-08-31 23:54:34 | 41.53571 | 2.75384 | 58° | 58km/h | 15808m | 4.0m/s | 0°C | 0% | 0hPa | 0V | 00:00:00 | 00:00:00 | 00:00:00 | |
| EA3IBE | 2026-08-31 23:54:22 | 41.53483 | 2.75184 | 66° | 57km/h | 15753m | 4.2m/s | 0°C | 0% | 0hPa | 0V | 00:00:00 | 00:00:00 | 00:00:00 | |
| EA3IBE | 2026-08-31 23:54:16 | 41.53447 | 2.75076 | 60° | 55km/h | 15725m | 5.7m/s | 0°C | 0% | 0hPa | 0V | 00:00:00 | 00:00:00 | 00:00:00 | |
| EA3IBE | 2026-08-31 23:54:09 | 41.53395 | 2.74963 | 70° | 53km/h | 15692m | 5.2m/s | 0°C | 0% | 0hPa | 0V | 00:00:00 | 00:00:00 | 00:00:00 | |
| EA3GEO | 2026-08-31 23:54:08 | 41.53390 | 2.74947 | 69° | 49km/h | 15687m | 4.0m/s | 0°C | 0% | 0hPa | 0V | 00:00:00 | 00:00:00 | 00:00:00 | |
| EA3IBE | 2026-08-31 23:54:02 | 41.53353 | 2.74858 | 57° | 58km/h | 15659m | 5.1m/s | 0°C | 0% | 0hPa | 0V | 00:00:00 | 00:00:00 | 00:00:00 | |
| EA3GEO | 2026-08-31 23:53:56 | 41.53318 | 2.74756 | 68° | 53km/h | 15633m | 4.5m/s | 0°C | 0% | 0hPa | 0V | 00:00:00 | 00:00:00 | 00:00:00 | |
| EA3IBE | 2026-08-31 23:53:54 | 41.53304 | 2.74722 | 62° | 60km/h | 15624m | 4.4m/s | 0°C | 0% | 0hPa | 0V | 00:00:00 | 00:00:00 | 00:00:00 | |
| EA3GEO | 2026-08-31 23:53:50 | 41.53279 | 2.74658 | 62° | 47km/h | 15604m | 3.9m/s | 0°C | 0% | 0hPa | 0V | 00:00:00 | 00:00:00 | 00:00:00 | |
| EA3GEO | 2026-08-31 23:53:43 | 41.53241 | 2.74541 | 74° | 53km/h | 15569m | 3.7m/s | 0°C | 0% | 0hPa | 0V | 00:00:00 | 00:00:00 | 00:00:00 | |
| EA3GEO | 2026-08-31 23:53:38 | 41.53225 | 2.74456 | 69° | 57km/h | 15547m | 4.3m/s | 0°C | 0% | 0hPa | 0V | 00:00:00 | 00:00:00 | 00:00:00 | |
| EA3GEO | 2026-08-31 23:53:32 | 41.53199 | 2.74357 | 76° | 46km/h | 15523m | 3.5m/s | 0°C | 0% | 0hPa | 0V | 00:00:00 | 00:00:00 | 00:00:00 | |
| EA3GEO | 2026-08-31 23:53:26 | 41.53181 | 2.74266 | 74° | 53km/h | 15497m | 4.4m/s | 0°C | 0% | 0hPa | 0V | 00:00:00 | 00:00:00 | 00:00:00 | |
| EA3IBE | 2026-08-31 23:53:22 | 41.53163 | 2.74204 | 75° | 51km/h | 15479m | 4.7m/s | 0°C | 0% | 0hPa | 0V | 00:00:00 | 00:00:00 | 00:00:00 | |
| EA3GEO | 2026-08-31 23:53:20 | 41.53156 | 2.74169 | 78° | 53km/h | 15470m | 5.4m/s | 0°C | 0% | 0hPa | 0V | 00:00:00 | 00:00:00 | 00:00:00 | |
| EA3IBE | 2026-08-31 23:53:14 | 41.53138 | 2.74062 | 71° | 53km/h | 15443m | 4.1m/s | 0°C | 0% | 0hPa | 0V | 00:00:00 | 00:00:00 | 00:00:00 | |
| EA3IBE | 2026-08-31 23:53:08 | 41.53122 | 2.73965 | 89° | 47km/h | 15416m | 5.3m/s | 0°C | 0% | 0hPa | 0V | 00:00:00 | 00:00:00 | 00:00:00 | |
| EA3IBE | 2026-08-31 23:53:01 | 41.53110 | 2.73846 | 87° | 53km/h | 15384m | 4.4m/s | 0°C | 0% | 0hPa | 0V | 00:00:00 | 00:00:00 | 00:00:00 | |
| EA3GEO | 2026-08-31 23:52:52 | 41.53104 | 2.73679 | 87° | 55km/h | 15346m | 4.2m/s | 0°C | 0% | 0hPa | 0V | 00:00:00 | 00:00:00 | 00:00:00 | |
| EA3IBE | 2026-08-31 23:52:49 | 41.53103 | 2.73621 | 90° | 55km/h | 15333m | 4.9m/s | 0°C | 0% | 0hPa | 0V | 00:00:00 | 00:00:00 | 00:00:00 | |
| EA3GEO | 2026-08-31 23:52:41 | 41.53102 | 2.73473 | 89° | 58km/h | 15296m | 5.0m/s | 0°C | 0% | 0hPa | 0V | 00:00:00 | 00:00:00 | 00:00:00 | |
| EA3GEO | 2026-08-31 23:52:22 | 41.53112 | 2.73121 | 98° | 62km/h | 15210m | 4.5m/s | 0°C | 0% | 0hPa | 0V | 00:00:00 | 00:00:00 | 00:00:00 | |
| EA3GEO | 2026-08-31 23:52:12 | 41.53119 | 2.72925 | 101° | 62km/h | 15163m | 4.1m/s | 0°C | 0% | 0hPa | 0V | 00:00:00 | 00:00:00 | 00:00:00 | |
| EA3IBE | 2026-08-31 23:52:03 | 41.53128 | 2.72735 | 89° | 60km/h | 15121m | 5.8m/s | 0°C | 0% | 0hPa | 0V | 00:00:00 | 00:00:00 | 00:00:00 | |
| EA3GEO | 2026-08-31 23:52:01 | 41.53127 | 2.72694 | 91° | 64km/h | 15112m | 5.7m/s | 0°C | 0% | 0hPa | 0V | 00:00:00 | 00:00:00 | 00:00:00 | |
| EA3IBE | 2026-08-31 23:51:53 | 41.53126 | 2.72513 | 87° | 62km/h | 15074m | 4.5m/s | 0°C | 0% | 0hPa | 0V | 00:00:00 | 00:00:00 | 00:00:00 | |
| EA3IBE | 2026-08-31 23:51:46 | 41.53119 | 2.72357 | 89° | 73km/h | 15041m | 3.6m/s | 0°C | 0% | 0hPa | 0V | 00:00:00 | 00:00:00 | 00:00:00 | |
| EA3IBE | 2026-08-31 23:51:40 | 41.53115 | 2.72218 | 90° | 68km/h | 15014m | 3.6m/s | 0°C | 0% | 0hPa | 0V | 00:00:00 | 00:00:00 | 00:00:00 | |
| EA3GEO | 2026-08-31 23:51:35 | 41.53110 | 2.72107 | 90° | 68km/h | 14992m | 4.0m/s | 0°C | 0% | 0hPa | 0V | 00:00:00 | 00:00:00 | 00:00:00 | |
| EA3IBE | 2026-08-31 23:51:28 | 41.53107 | 2.71944 | 90° | 66km/h | 14960m | 4.0m/s | 0°C | 0% | 0hPa | 0V | 00:00:00 | 00:00:00 | 00:00:00 | |
| EA3IBE | 2026-08-31 23:51:23 | 41.53108 | 2.71826 | 92° | 71km/h | 14936m | 3.5m/s | 0°C | 0% | 0hPa | 0V | 00:00:00 | 00:00:00 | 00:00:00 | |
| EA3GEO | 2026-08-31 23:51:21 | 41.53110 | 2.71777 | 95° | 73km/h | 14926m | 4.0m/s | 0°C | 0% | 0hPa | 0V | 00:00:00 | 00:00:00 | 00:00:00 | |
| EA3IBE | 2026-08-31 23:51:15 | 41.53114 | 2.71627 | 94° | 77km/h | 14899m | 5.1m/s | 0°C | 0% | 0hPa | 0V | 00:00:00 | 00:00:00 | 00:00:00 | |
| EA3IBE | 2026-08-31 23:51:10 | 41.53117 | 2.71504 | 89° | 71km/h | 14876m | 5.4m/s | 0°C | 0% | 0hPa | 0V | 00:00:00 | 00:00:00 | 00:00:00 | |
| EA3GEO | 2026-08-31 23:51:09 | 41.53117 | 2.71480 | 88° | 71km/h | 14872m | 2.8m/s | 0°C | 0% | 0hPa | 0V | 00:00:00 | 00:00:00 | 00:00:00 | |
| EA3IBE | 2026-08-31 23:51:03 | 41.53117 | 2.71328 | 94° | 77km/h | 14844m | 5.3m/s | 0°C | 0% | 0hPa | 0V | 00:00:00 | 00:00:00 | 00:00:00 | |
| EA3GEO | 2026-08-31 23:50:58 | 41.53118 | 2.71201 | 88° | 80km/h | 14822m | 4.3m/s | 0°C | 0% | 0hPa | 0V | 00:00:00 | 00:00:00 | 00:00:00 | |
| EA3GEO | 2026-08-31 23:50:53 | 41.53117 | 2.71075 | 96° | 77km/h | 14800m | 5.4m/s | 0°C | 0% | 0hPa | 0V | 00:00:00 | 00:00:00 | 00:00:00 | |
| EA3GEO | 2026-08-31 23:50:48 | 41.53123 | 2.70945 | 92° | 80km/h | 14777m | 5.3m/s | 0°C | 0% | 0hPa | 0V | 00:00:00 | 00:00:00 | 00:00:00 | |
| EA3IBE | 2026-08-31 23:50:44 | 41.53123 | 2.70837 | 91° | 78km/h | 14758m | 4.2m/s | 0°C | 0% | 0hPa | 0V | 00:00:00 | 00:00:00 | 00:00:00 | |
| EA3GEO | 2026-08-31 23:50:42 | 41.53125 | 2.70784 | 95° | 78km/h | 14750m | 3.8m/s | 0°C | 0% | 0hPa | 0V | 00:00:00 | 00:00:00 | 00:00:00 | |
| EA3GEO | 2026-08-31 23:50:38 | 41.53130 | 2.70597 | 89° | 84km/h | 14718m | 3.8m/s | 0°C | 0% | 0hPa | 0V | 00:00:00 | 00:00:00 | 00:00:00 | |
| EA3IBE | 2026-08-31 23:50:37 | 41.53124 | 2.70485 | 84° | 77km/h | 14701m | 5.1m/s | 0°C | 0% | 0hPa | 0V | 00:00:00 | 00:00:00 | 00:00:00 | |
| EA3IBE | 2026-08-31 23:50:36 | 41.53116 | 2.70354 | 85° | 84km/h | 14679m | 4.3m/s | 0°C | 0% | 0hPa | 0V | 00:00:00 | 00:00:00 | 00:00:00 | |
| EA3IBE | 2026-08-31 23:50:24 | 41.53103 | 2.70190 | 87° | 75km/h | 14653m | 5.5m/s | 0°C | 0% | 0hPa | 0V | 00:00:00 | 00:00:00 | 00:00:00 | |
| EA3GEO | 2026-08-31 23:50:15 | 41.53094 | 2.70062 | 81° | 78km/h | 14632m | 4.3m/s | 0°C | 0% | 0hPa | 0V | 00:00:00 | 00:00:00 | 00:00:00 | |
| EA3IBE | 2026-08-31 23:50:14 | 41.53091 | 2.70036 | 84° | 78km/h | 14628m | 4.6m/s | 0°C | 0% | 0hPa | 0V | 00:00:00 | 00:00:00 | 00:00:00 | |
| EA3GEO | 2026-08-31 23:50:01 | 41.53068 | 2.69706 | 83° | 82km/h | 14570m | 3.9m/s | 0°C | 0% | 0hPa | 0V | 00:00:00 | 00:00:00 | 00:00:00 | |
| EA3IBE | 2026-08-31 23:49:54 | 41.53053 | 2.69518 | 87° | 75km/h | 14540m | 3.2m/s | 0°C | 0% | 0hPa | 0V | 00:00:00 | 00:00:00 | 00:00:00 | |
| EA3IBE | 2026-08-31 23:49:48 | 41.53035 | 2.69358 | 82° | 78km/h | 14512m | 5.2m/s | 0°C | 0% | 0hPa | 0V | 00:00:00 | 00:00:00 | 00:00:00 | |
| EA3GEO | 2026-08-31 23:49:45 | 41.53025 | 2.69279 | 80° | 77km/h | 14498m | 5.1m/s | 0°C | 0% | 0hPa | 0V | 00:00:00 | 00:00:00 | 00:00:00 | |
| EA3IBE | 2026-08-31 23:49:43 | 41.53018 | 2.69227 | 81° | 84km/h | 14489m | 4.7m/s | 0°C | 0% | 0hPa | 0V | 00:00:00 | 00:00:00 | 00:00:00 | |
| EA3GEO | 2026-08-31 23:49:39 | 41.53006 | 2.69113 | 85° | 84km/h | 14471m | 5.3m/s | 0°C | 0% | 0hPa | 0V | 00:00:00 | 00:00:00 | 00:00:00 | |
| EA3IBE | 2026-08-31 23:49:34 | 41.52986 | 2.68977 | 76° | 84km/h | 14448m | 5.2m/s | 0°C | 0% | 0hPa | 0V | 00:00:00 | 00:00:00 | 00:00:00 | |
| EA3GEO | 2026-08-31 23:49:33 | 41.52981 | 2.68949 | 77° | 86km/h | 14444m | 3.7m/s | 0°C | 0% | 0hPa | 0V | 00:00:00 | 00:00:00 | 00:00:00 | |
| EA3GEO | 2026-08-31 23:49:26 | 41.52960 | 2.68742 | 82° | 80km/h | 14413m | 4.4m/s | 0°C | 0% | 0hPa | 0V | 00:00:00 | 00:00:00 | 00:00:00 | |
| EA3GEO | 2026-08-31 23:49:20 | 41.52928 | 2.68573 | 78° | 88km/h | 14387m | 4.1m/s | 0°C | 0% | 0hPa | 0V | 00:00:00 | 00:00:00 | 00:00:00 | |
| EA3IBE | 2026-08-31 23:49:12 | 41.52883 | 2.68347 | 72° | 88km/h | 14351m | 4.0m/s | 0°C | 0% | 0hPa | 0V | 00:00:00 | 00:00:00 | 00:00:00 | |
| EA3GEO | 2026-08-31 23:49:10 | 41.52870 | 2.68288 | 78° | 91km/h | 14342m | 3.7m/s | 0°C | 0% | 0hPa | 0V | 00:00:00 | 00:00:00 | 00:00:00 | |
| EA3IBE | 2026-08-31 23:49:06 | 41.52851 | 2.68173 | 78° | 88km/h | 14325m | 4.6m/s | 0°C | 0% | 0hPa | 0V | 00:00:00 | 00:00:00 | 00:00:00 | |
| EA3IBE | 2026-08-31 23:49:00 | 41.52819 | 2.68003 | 76° | 84km/h | 14298m | 5.3m/s | 0°C | 0% | 0hPa | 0V | 00:00:00 | 00:00:00 | 00:00:00 | |
| EA3GEO | 2026-08-31 23:48:59 | 41.52813 | 2.67975 | 77° | 84km/h | 14293m | 4.3m/s | 0°C | 0% | 0hPa | 0V | 00:00:00 | 00:00:00 | 00:00:00 | |
| EA3IBE | 2026-08-31 23:48:55 | 41.52790 | 2.67862 | 77° | 88km/h | 14275m | 5.4m/s | 0°C | 0% | 0hPa | 0V | 00:00:00 | 00:00:00 | 00:00:00 | |
| EA3IBE | 2026-08-31 23:48:49 | 41.52755 | 2.67693 | 74° | 88km/h | 14248m | 4.9m/s | 0°C | 0% | 0hPa | 0V | 00:00:00 | 00:00:00 | 00:00:00 | |
| EA3GEO | 2026-08-31 23:48:45 | 41.52730 | 2.67577 | 75° | 89km/h | 14230m | 4.6m/s | 0°C | 0% | 0hPa | 0V | 00:00:00 | 00:00:00 | 00:00:00 | |
| EA3IBE | 2026-08-31 23:48:43 | 41.52717 | 2.67518 | 76° | 89km/h | 14222m | 3.7m/s | 0°C | 0% | 0hPa | 0V | 00:00:00 | 00:00:00 | 00:00:00 | |
| EA3IBE | 2026-08-31 23:48:38 | 41.52687 | 2.67377 | 74° | 88km/h | 14199m | 5.3m/s | 0°C | 0% | 0hPa | 0V | 00:00:00 | 00:00:00 | 00:00:00 | |
| EA3GEO | 2026-08-31 23:48:31 | 41.52630 | 2.67143 | 75° | 93km/h | 14165m | 3.8m/s | 0°C | 0% | 0hPa | 0V | 00:00:00 | 00:00:00 | 00:00:00 | |
| EA3IBE | 2026-08-31 23:48:30 | 41.52630 | 2.67143 | 75° | 93km/h | 14165m | 3.8m/s | 0°C | 0% | 0hPa | 0V | 00:00:00 | 00:00:00 | 00:00:00 | |
| EA3IBE | 2026-08-31 23:48:24 | 41.52589 | 2.66967 | 74° | 91km/h | 14139m | 5.2m/s | 0°C | 0% | 0hPa | 0V | 00:00:00 | 00:00:00 | 00:00:00 | |
| EA3IBE | 2026-08-31 23:48:18 | 41.52551 | 2.66779 | 76° | 99km/h | 14111m | 3.9m/s | 0°C | 0% | 0hPa | 0V | 00:00:00 | 00:00:00 | 00:00:00 | |
| EA3GEO | 2026-08-31 23:48:17 | 41.52543 | 2.66747 | 73° | 97km/h | 14107m | 4.8m/s | 0°C | 0% | 0hPa | 0V | 00:00:00 | 00:00:00 | 00:00:00 | |
| EA3IBE | 2026-08-31 23:48:12 | 41.52509 | 2.66598 | 75° | 95km/h | 14086m | 5.6m/s | 0°C | 0% | 0hPa | 0V | 00:00:00 | 00:00:00 | 00:00:00 | |
| EA3IBE | 2026-08-31 23:48:05 | 41.52467 | 2.66379 | 76° | 89km/h | 14054m | 3.8m/s | 0°C | 0% | 0hPa | 0V | 00:00:00 | 00:00:00 | 00:00:00 | |
| EA3GEO | 2026-08-31 23:48:03 | 41.52453 | 2.66320 | 74° | 93km/h | 14046m | 3.9m/s | 0°C | 0% | 0hPa | 0V | 00:00:00 | 00:00:00 | 00:00:00 | |
| EA3IBE | 2026-08-31 23:47:59 | 41.52428 | 2.66198 | 75° | 100km/h | 14028m | 4.2m/s | 0°C | 0% | 0hPa | 0V | 00:00:00 | 00:00:00 | 00:00:00 | |
| EA3IBE | 2026-08-31 23:47:54 | 41.52398 | 2.66043 | 79° | 93km/h | 14004m | 5.1m/s | 0°C | 0% | 0hPa | 0V | 00:00:00 | 00:00:00 | 00:00:00 | |
| EA3IBE | 2026-08-31 23:47:47 | 41.52357 | 2.65818 | 77° | 95km/h | 13972m | 4.4m/s | 0°C | 0% | 0hPa | 0V | 00:00:00 | 00:00:00 | 00:00:00 | |
| EA3IBE | 2026-08-31 23:47:41 | 41.52321 | 2.65636 | 77° | 95km/h | 13944m | 5.0m/s | 0°C | 0% | 0hPa | 0V | 00:00:00 | 00:00:00 | 00:00:00 | |
| EA3GEO | 2026-08-31 23:47:38 | 41.52299 | 2.65542 | 71° | 99km/h | 13930m | 5.4m/s | 0°C | 0% | 0hPa | 0V | 00:00:00 | 00:00:00 | 00:00:00 | |
| EA3IBE | 2026-08-31 23:47:35 | 41.52273 | 2.65447 | 70° | 99km/h | 13917m | 4.5m/s | 0°C | 0% | 0hPa | 0V | 00:00:00 | 00:00:00 | 00:00:00 | |
| EA3GEO | 2026-08-31 23:47:32 | 41.52252 | 2.65356 | 77° | 93km/h | 13903m | 4.4m/s | 0°C | 0% | 0hPa | 0V | 00:00:00 | 00:00:00 | 00:00:00 | |
| EA3IBE | 2026-08-31 23:47:29 | 41.52230 | 2.65262 | 69° | 100km/h | 13889m | 3.8m/s | 0°C | 0% | 0hPa | 0V | 00:00:00 | 00:00:00 | 00:00:00 | |
| EA3IBE | 2026-08-31 23:47:24 | 41.52184 | 2.65109 | 69° | 97km/h | 13865m | 3.9m/s | 0°C | 0% | 0hPa | 0V | 00:00:00 | 00:00:00 | 00:00:00 | |
| EA3IBE | 2026-08-31 23:47:18 | 41.52126 | 2.64927 | 67° | 102km/h | 13838m | 5.5m/s | 0°C | 0% | 0hPa | 0V | 00:00:00 | 00:00:00 | 00:00:00 | |
| EA3IBE | 2026-08-31 23:47:13 | 41.52079 | 2.64775 | 70° | 89km/h | 13814m | 4.7m/s | 0°C | 0% | 0hPa | 0V | 00:00:00 | 00:00:00 | 00:00:00 | |
| EA3GEO | 2026-08-31 23:47:09 | 41.52042 | 2.64666 | 65° | 93km/h | 13796m | 4.2m/s | 0°C | 0% | 0hPa | 0V | 00:00:00 | 00:00:00 | 00:00:00 | |
| EA3IBE | 2026-08-31 23:47:07 | 41.52019 | 2.64607 | 64° | 104km/h | 13786m | 3.9m/s | 0°C | 0% | 0hPa | 0V | 00:00:00 | 00:00:00 | 00:00:00 | |
| EA3IBE | 2026-08-31 23:47:02 | 41.51972 | 2.64456 | 69° | 89km/h | 13764m | 4.9m/s | 0°C | 0% | 0hPa | 0V | 00:00:00 | 00:00:00 | 00:00:00 | |
| EA3IBE | 2026-08-31 23:46:56 | 41.51914 | 2.64279 | 70° | 104km/h | 13736m | 3.0m/s | 0°C | 0% | 0hPa | 0V | 00:00:00 | 00:00:00 | 00:00:00 | |
| EA3GEO | 2026-08-31 23:46:55 | 41.51905 | 2.64247 | 72° | 100km/h | 13732m | 4.4m/s | 0°C | 0% | 0hPa | 0V | 00:00:00 | 00:00:00 | 00:00:00 | |
| EA3IBE | 2026-08-31 23:46:51 | 41.51874 | 2.64131 | 71° | 91km/h | 13713m | 4.9m/s | 0°C | 0% | 0hPa | 0V | 00:00:00 | 00:00:00 | 00:00:00 | |
| EA3GEO | 2026-08-31 23:46:49 | 41.51858 | 2.64072 | 71° | 95km/h | 13704m | 5.5m/s | 0°C | 0% | 0hPa | 0V | 00:00:00 | 00:00:00 | 00:00:00 | |
| EA3IBE | 2026-08-31 23:46:45 | 41.51825 | 2.63945 | 72° | 102km/h | 13686m | 5.5m/s | 0°C | 0% | 0hPa | 0V | 00:00:00 | 00:00:00 | 00:00:00 | |
| EA3GEO | 2026-08-31 23:46:40 | 41.51784 | 2.63790 | 74° | 102km/h | 13662m | 4.4m/s | 0°C | 0% | 0hPa | 0V | 00:00:00 | 00:00:00 | 00:00:00 | |
| EA3IBE | 2026-08-31 23:46:39 | 41.51776 | 2.63757 | 74° | 102km/h | 13657m | 5.4m/s | 0°C | 0% | 0hPa | 0V | 00:00:00 | 00:00:00 | 00:00:00 | |
| EA3IBE | 2026-08-31 23:46:33 | 41.51725 | 2.63563 | 72° | 99km/h | 13628m | 4.9m/s | 0°C | 0% | 0hPa | 0V | 00:00:00 | 00:00:00 | 00:00:00 | |
| EA3IBE | 2026-08-31 23:46:28 | 41.51683 | 2.63405 | 69° | 108km/h | 13606m | 4.7m/s | 0°C | 0% | 0hPa | 0V | 00:00:00 | 00:00:00 | 00:00:00 | |
| EA3GEO | 2026-08-31 23:46:23 | 41.51631 | 2.63236 | 76° | 95km/h | 13583m | 2.8m/s | 0°C | 0% | 0hPa | 0V | 00:00:00 | 00:00:00 | 00:00:00 | |
| EA3IBE | 2026-08-31 23:46:18 | 41.51583 | 2.63040 | 63° | 108km/h | 13552m | 7.1m/s | 0°C | 0% | 0hPa | 0V | 00:00:00 | 00:00:00 | 00:00:00 | |
| EA3IBE | 2026-08-31 23:46:11 | 41.51525 | 2.62836 | 73° | 99km/h | 13518m | 6.1m/s | 0°C | 0% | 0hPa | 0V | 00:00:00 | 00:00:00 | 00:00:00 | |
| EA3GEO | 2026-08-31 23:46:10 | 41.51516 | 2.62805 | 66° | 100km/h | 13513m | 5.6m/s | 0°C | 0% | 0hPa | 0V | 00:00:00 | 00:00:00 | 00:00:00 | |
| EA3IBE | 2026-08-31 23:46:07 | 41.51466 | 2.62678 | 67° | 106km/h | 13491m | 5.2m/s | 0°C | 0% | 0hPa | 0V | 00:00:00 | 00:00:00 | 00:00:00 | |
| EA3IBE | 2026-08-31 23:46:00 | 41.51398 | 2.62483 | 64° | 108km/h | 13463m | 4.6m/s | 0°C | 0% | 0hPa | 0V | 00:00:00 | 00:00:00 | 00:00:00 | |
| EA3IBE | 2026-08-31 23:45:55 | 41.51336 | 2.62325 | 63° | 104km/h | 13440m | 4.3m/s | 0°C | 0% | 0hPa | 0V | 00:00:00 | 00:00:00 | 00:00:00 | |
| EA3IBE | 2026-08-31 23:45:48 | 41.51246 | 2.62108 | 60° | 104km/h | 13408m | 4.4m/s | 0°C | 0% | 0hPa | 0V | 00:00:00 | 00:00:00 | 00:00:00 | |
| EA3GEO | 2026-08-31 23:45:47 | 41.51233 | 2.62078 | 61° | 102km/h | 13403m | 5.2m/s | 0°C | 0% | 0hPa | 0V | 00:00:00 | 00:00:00 | 00:00:00 | |
| EA3IBE | 2026-08-31 23:45:43 | 41.51180 | 2.61959 | 60° | 106km/h | 13384m | 4.9m/s | 0°C | 0% | 0hPa | 0V | 00:00:00 | 00:00:00 | 00:00:00 | |
| EA3IBE | 2026-08-31 23:45:37 | 41.51103 | 2.61768 | 66° | 102km/h | 13357m | 3.9m/s | 0°C | 0% | 0hPa | 0V | 00:00:00 | 00:00:00 | 00:00:00 | |
| EA3GEO | 2026-08-31 23:45:34 | 41.51068 | 2.61679 | 59° | 99km/h | 13344m | 3.3m/s | 0°C | 0% | 0hPa | 0V | 00:00:00 | 00:00:00 | 00:00:00 | |
| EA3IBE | 2026-08-31 23:45:30 | 41.51017 | 2.61561 | 63° | 102km/h | 13326m | 4.9m/s | 0°C | 0% | 0hPa | 0V | 00:00:00 | 00:00:00 | 00:00:00 | |
| EA3IBE | 2026-08-31 23:45:25 | 41.50959 | 2.61399 | 68° | 108km/h | 13305m | 4.8m/s | 0°C | 0% | 0hPa | 0V | 00:00:00 | 00:00:00 | 00:00:00 | |
| EA3IBE | 2026-08-31 23:45:20 | 41.50896 | 2.61246 | 61° | 102km/h | 13282m | 3.2m/s | 0°C | 0% | 0hPa | 0V | 00:00:00 | 00:00:00 | 00:00:00 | |
| EA3IBE | 2026-08-31 23:45:15 | 41.50826 | 2.61062 | 67° | 104km/h | 13257m | 4.2m/s | 0°C | 0% | 0hPa | 0V | 00:00:00 | 00:00:00 | 00:00:00 | |
| EA3IBE | 2026-08-31 23:45:08 | 41.50756 | 2.60873 | 64° | 100km/h | 13231m | 3.2m/s | 0°C | 0% | 0hPa | 0V | 00:00:00 | 00:00:00 | 00:00:00 | |
| EA3IBE | 2026-08-31 23:44:57 | 41.50614 | 2.60534 | 61° | 106km/h | 13182m | 3.5m/s | 0°C | 0% | 0hPa | 0V | 00:00:00 | 00:00:00 | 00:00:00 | |
| EA3IBE | 2026-08-31 23:44:51 | 41.50534 | 2.60350 | 61° | 108km/h | 13156m | 4.5m/s | 0°C | 0% | 0hPa | 0V | 00:00:00 | 00:00:00 | 00:00:00 | |
| EA3IBE | 2026-08-31 23:44:45 | 41.50458 | 2.60164 | 64° | 100km/h | 13130m | 4.6m/s | 0°C | 0% | 0hPa | 0V | 00:00:00 | 00:00:00 | 00:00:00 | |
| EA3IBE | 2026-08-31 23:44:39 | 41.50376 | 2.59969 | 60° | 119km/h | 13105m | 2.9m/s | 0°C | 0% | 0hPa | 0V | 00:00:00 | 00:00:00 | 00:00:00 | |
| EA3IBE | 2026-08-31 23:44:34 | 41.50314 | 2.59821 | 64° | 95km/h | 13080m | 6.4m/s | 0°C | 0% | 0hPa | 0V | 00:00:00 | 00:00:00 | 00:00:00 | |
| EA3IBE | 2026-08-31 23:44:29 | 41.50245 | 2.59667 | 58° | 111km/h | 13051m | 6.1m/s | 0°C | 0% | 0hPa | 0V | 00:00:00 | 00:00:00 | 00:00:00 | |
| EA3IBE | 2026-08-31 23:44:23 | 41.50161 | 2.59495 | 61° | 99km/h | 13025m | 3.1m/s | 0°C | 0% | 0hPa | 0V | 00:00:00 | 00:00:00 | 00:00:00 | |
| EA3IBE | 2026-08-31 23:44:17 | 41.50077 | 2.59315 | 59° | 104km/h | 12997m | 4.4m/s | 0°C | 0% | 0hPa | 0V | 00:00:00 | 00:00:00 | 00:00:00 | |
| EA3IBE | 2026-08-31 23:44:11 | 41.49995 | 2.59140 | 61° | 108km/h | 12973m | 3.9m/s | 0°C | 0% | 0hPa | 0V | 00:00:00 | 00:00:00 | 00:00:00 | |
| EA3IBE | 2026-08-31 23:44:06 | 41.49927 | 2.58982 | 58° | 106km/h | 12952m | 4.1m/s | 0°C | 0% | 0hPa | 0V | 00:00:00 | 00:00:00 | 00:00:00 | |
| EA3IBE | 2026-08-31 23:44:00 | 41.49844 | 2.58804 | 64° | 115km/h | 12928m | 4.8m/s | 0°C | 0% | 0hPa | 0V | 00:00:00 | 00:00:00 | 00:00:00 | |
| EA3IBE | 2026-08-31 23:43:54 | 41.49762 | 2.58616 | 58° | 97km/h | 12906m | 3.1m/s | 0°C | 0% | 0hPa | 0V | 00:00:00 | 00:00:00 | 00:00:00 | |
| EA3IBE | 2026-08-31 23:43:48 | 41.49683 | 2.58433 | 62° | 108km/h | 12883m | 4.4m/s | 0°C | 0% | 0hPa | 0V | 00:00:00 | 00:00:00 | 00:00:00 | |
| EA3IBE | 2026-08-31 23:43:43 | 41.49614 | 2.58281 | 61° | 104km/h | 12865m | 3.6m/s | 0°C | 0% | 0hPa | 0V | 00:00:00 | 00:00:00 | 00:00:00 | |
| EA3IBE | 2026-08-31 23:43:37 | 41.49527 | 2.58099 | 58° | 106km/h | 12842m | 4.7m/s | 0°C | 0% | 0hPa | 0V | 00:00:00 | 00:00:00 | 00:00:00 | |
| EA3IBE | 2026-08-31 23:43:31 | 41.49443 | 2.57912 | 59° | 111km/h | 12820m | 4.3m/s | 0°C | 0% | 0hPa | 0V | 00:00:00 | 00:00:00 | 00:00:00 | |
| EA3IBE | 2026-08-31 23:43:25 | 41.49358 | 2.57731 | 58° | 106km/h | 12798m | 4.8m/s | 0°C | 0% | 0hPa | 0V | 00:00:00 | 00:00:00 | 00:00:00 | |
| EA3IBE | 2026-08-31 23:43:19 | 41.49274 | 2.57547 | 62° | 106km/h | 12773m | 4.1m/s | 0°C | 0% | 0hPa | 0V | 00:00:00 | 00:00:00 | 00:00:00 | |
| EA3IBE | 2026-08-31 23:43:14 | 41.49208 | 2.57393 | 60° | 106km/h | 12753m | 3.5m/s | 0°C | 0% | 0hPa | 0V | 00:00:00 | 00:00:00 | 00:00:00 | |
| EA3IBE | 2026-08-31 23:43:09 | 41.49138 | 2.57240 | 61° | 110km/h | 12734m | 4.0m/s | 0°C | 0% | 0hPa | 0V | 00:00:00 | 00:00:00 | 00:00:00 | |
| EA3IBE | 2026-08-31 23:43:03 | 41.49060 | 2.57052 | 60° | 102km/h | 12712m | 3.6m/s | 0°C | 0% | 0hPa | 0V | 00:00:00 | 00:00:00 | 00:00:00 | |
| EA3IBE | 2026-08-31 23:42:57 | 41.48977 | 2.56869 | 60° | 108km/h | 12689m | 2.5m/s | 0°C | 0% | 0hPa | 0V | 00:00:00 | 00:00:00 | 00:00:00 | |
| EA3IBE | 2026-08-31 23:42:52 | 41.48911 | 2.56723 | 60° | 102km/h | 12671m | 2.8m/s | 0°C | 0% | 0hPa | 0V | 00:00:00 | 00:00:00 | 00:00:00 | |
| EA3IBE | 2026-08-31 23:42:46 | 41.48830 | 2.56547 | 59° | 100km/h | 12648m | 2.7m/s | 0°C | 0% | 0hPa | 0V | 00:00:00 | 00:00:00 | 00:00:00 | |
| EA3IBE | 2026-08-31 23:42:40 | 41.48750 | 2.56371 | 61° | 106km/h | 12626m | 3.4m/s | 0°C | 0% | 0hPa | 0V | 00:00:00 | 00:00:00 | 00:00:00 | |
| EA3IBE | 2026-08-31 23:42:35 | 41.48684 | 2.56222 | 58° | 102km/h | 12606m | 4.2m/s | 0°C | 0% | 0hPa | 0V | 00:00:00 | 00:00:00 | 00:00:00 | |
| EA3IBE | 2026-08-31 23:42:29 | 41.48599 | 2.56052 | 60° | 97km/h | 12584m | 3.3m/s | 0°C | 0% | 0hPa | 0V | 00:00:00 | 00:00:00 | 00:00:00 | |
| EA3IBE | 2026-08-31 23:42:23 | 41.48519 | 2.55881 | 58° | 104km/h | 12561m | 4.4m/s | 0°C | 0% | 0hPa | 0V | 00:00:00 | 00:00:00 | 00:00:00 | |
| EA3IBE | 2026-08-31 23:42:17 | 41.48442 | 2.55703 | 62° | 99km/h | 12538m | 4.1m/s | 0°C | 0% | 0hPa | 0V | 00:00:00 | 00:00:00 | 00:00:00 | |
| EA3IBE | 2026-08-31 23:42:12 | 41.48376 | 2.55557 | 59° | 106km/h | 12521m | 4.0m/s | 0°C | 0% | 0hPa | 0V | 00:00:00 | 00:00:00 | 00:00:00 | |
| EA3IBE | 2026-08-31 23:42:06 | 41.48294 | 2.55378 | 60° | 99km/h | 12499m | 2.5m/s | 0°C | 0% | 0hPa | 0V | 00:00:00 | 00:00:00 | 00:00:00 | |
| EA3IBE | 2026-08-31 23:42:00 | 41.48215 | 2.55198 | 60° | 106km/h | 12477m | 3.5m/s | 0°C | 0% | 0hPa | 0V | 00:00:00 | 00:00:00 | 00:00:00 | |
| EA3IBE | 2026-08-31 23:41:54 | 41.48134 | 2.55019 | 61° | 100km/h | 12454m | 3.3m/s | 0°C | 0% | 0hPa | 0V | 00:00:00 | 00:00:00 | 00:00:00 | |
| EA3IBE | 2026-08-31 23:41:49 | 41.48072 | 2.54866 | 63° | 104km/h | 12435m | 5.1m/s | 0°C | 0% | 0hPa | 0V | 00:00:00 | 00:00:00 | 00:00:00 | |
| EA3IBE | 2026-08-31 23:41:43 | 41.47985 | 2.54687 | 57° | 104km/h | 12411m | 4.1m/s | 0°C | 0% | 0hPa | 0V | 00:00:00 | 00:00:00 | 00:00:00 | |
| EA3IBE | 2026-08-31 23:41:38 | 41.47923 | 2.54531 | 62° | 106km/h | 12393m | 3.1m/s | 0°C | 0% | 0hPa | 0V | 00:00:00 | 00:00:00 | 00:00:00 | |
| EA3IBE | 2026-08-31 23:41:32 | 41.47835 | 2.54353 | 59° | 102km/h | 12369m | 4.2m/s | 0°C | 0% | 0hPa | 0V | 00:00:00 | 00:00:00 | 00:00:00 | |
| EA3IBE | 2026-08-31 23:41:27 | 41.47755 | 2.54169 | 61° | 104km/h | 12345m | 3.6m/s | 0°C | 0% | 0hPa | 0V | 00:00:00 | 00:00:00 | 00:00:00 | |
| EA3IBE | 2026-08-31 23:41:20 | 41.47672 | 2.53984 | 58° | 106km/h | 12323m | 3.9m/s | 0°C | 0% | 0hPa | 0V | 00:00:00 | 00:00:00 | 00:00:00 | |
| EA3IBE | 2026-08-31 23:41:15 | 41.47603 | 2.53832 | 59° | 100km/h | 12302m | 4.8m/s | 0°C | 0% | 0hPa | 0V | 00:00:00 | 00:00:00 | 00:00:00 | |
| EA3IBE | 2026-08-31 23:41:03 | 41.47434 | 2.53472 | 60° | 104km/h | 12254m | 4.4m/s | 0°C | 0% | 0hPa | 0V | 00:00:00 | 00:00:00 | 00:00:00 | |
| EA3IBE | 2026-08-31 23:40:58 | 41.47366 | 2.53318 | 61° | 108km/h | 12231m | 4.7m/s | 0°C | 0% | 0hPa | 0V | 00:00:00 | 00:00:00 | 00:00:00 | |
| EA3IBE | 2026-08-31 23:40:52 | 41.47281 | 2.53132 | 60° | 108km/h | 12206m | 5.1m/s | 0°C | 0% | 0hPa | 0V | 00:00:00 | 00:00:00 | 00:00:00 | |
| EA3IBE | 2026-08-31 23:40:47 | 41.47211 | 2.52974 | 61° | 110km/h | 12183m | 4.7m/s | 0°C | 0% | 0hPa | 0V | 00:00:00 | 00:00:00 | 00:00:00 | |
| EA3IBE | 2026-08-31 23:40:41 | 41.47126 | 2.52788 | 58° | 108km/h | 12158m | 4.2m/s | 0°C | 0% | 0hPa | 0V | 00:00:00 | 00:00:00 | 00:00:00 | |
| EA3IBE | 2026-08-31 23:40:29 | 41.46960 | 2.52423 | 61° | 102km/h | 12108m | 3.7m/s | 0°C | 0% | 0hPa | 0V | 00:00:00 | 00:00:00 | 00:00:00 | |
| EA3IBE | 2026-08-31 23:40:24 | 41.46892 | 2.52274 | 59° | 100km/h | 12087m | 3.0m/s | 0°C | 0% | 0hPa | 0V | 00:00:00 | 00:00:00 | 00:00:00 | |
| EA3IBE | 2026-08-31 23:40:19 | 41.46822 | 2.52130 | 58° | 106km/h | 12066m | 3.8m/s | 0°C | 0% | 0hPa | 0V | 00:00:00 | 00:00:00 | 00:00:00 | |
| EA3IBE | 2026-08-31 23:40:13 | 41.46746 | 2.51948 | 61° | 100km/h | 12041m | 4.8m/s | 0°C | 0% | 0hPa | 0V | 00:00:00 | 00:00:00 | 00:00:00 | |
| EA3IBE | 2026-08-31 23:40:07 | 41.46667 | 2.51774 | 61° | 104km/h | 12014m | 4.7m/s | 0°C | 0% | 0hPa | 0V | 00:00:00 | 00:00:00 | 00:00:00 | |
| EA3IBE | 2026-08-31 23:40:02 | 41.46604 | 2.51625 | 59° | 100km/h | 11993m | 4.6m/s | 0°C | 0% | 0hPa | 0V | 00:00:00 | 00:00:00 | 00:00:00 | |
| EA3IBE | 2026-08-31 23:39:56 | 41.46523 | 2.51455 | 62° | 100km/h | 11968m | 4.2m/s | 0°C | 0% | 0hPa | 0V | 00:00:00 | 00:00:00 | 00:00:00 | |
| EA3IBE | 2026-08-31 23:39:30 | 41.46193 | 2.50708 | 64° | 102km/h | 11857m | 5.0m/s | 0°C | 0% | 0hPa | 0V | 00:00:00 | 00:00:00 | 00:00:00 | |
| EA3IBE | 2026-08-31 23:39:24 | 41.46118 | 2.50532 | 61° | 97km/h | 11830m | 5.3m/s | 0°C | 0% | 0hPa | 0V | 00:00:00 | 00:00:00 | 00:00:00 | |
| EA3IBE | 2026-08-31 23:39:19 | 41.46056 | 2.50384 | 65° | 102km/h | 11808m | 4.8m/s | 0°C | 0% | 0hPa | 0V | 00:00:00 | 00:00:00 | 00:00:00 | |
| EA3IBE | 2026-08-31 23:39:08 | 41.45923 | 2.50048 | 63° | 106km/h | 11759m | 4.0m/s | 0°C | 0% | 0hPa | 0V | 00:00:00 | 00:00:00 | 00:00:00 | |
| EA3IBE | 2026-08-31 23:38:58 | 41.45811 | 2.49745 | 64° | 102km/h | 11717m | 5.2m/s | 0°C | 0% | 0hPa | 0V | 00:00:00 | 00:00:00 | 00:00:00 | |
| EA3IBE | 2026-08-31 23:38:52 | 41.45747 | 2.49563 | 65° | 102km/h | 11692m | 4.1m/s | 0°C | 0% | 0hPa | 0V | 00:00:00 | 00:00:00 | 00:00:00 | |
| EA3IBE | 2026-08-31 23:38:46 | 41.45677 | 2.49380 | 66° | 100km/h | 11663m | 5.7m/s | 0°C | 0% | 0hPa | 0V | 00:00:00 | 00:00:00 | 00:00:00 | |
| EA3IBE | 2026-08-31 23:38:40 | 41.45613 | 2.49195 | 64° | 102km/h | 11636m | 4.3m/s | 0°C | 0% | 0hPa | 0V | 00:00:00 | 00:00:00 | 00:00:00 | |
| EA3IBE | 2026-08-31 23:38:35 | 41.45559 | 2.49040 | 70° | 100km/h | 11613m | 4.4m/s | 0°C | 0% | 0hPa | 0V | 00:00:00 | 00:00:00 | 00:00:00 | |
| EA3IBE | 2026-08-31 23:38:29 | 41.45494 | 2.48850 | 64° | 102km/h | 11588m | 5.4m/s | 0°C | 0% | 0hPa | 0V | 00:00:00 | 00:00:00 | 00:00:00 | |
| EA3IBE | 2026-08-31 23:38:23 | 41.45430 | 2.48669 | 66° | 100km/h | 11562m | 3.3m/s | 0°C | 0% | 0hPa | 0V | 00:00:00 | 00:00:00 | 00:00:00 | |
| EA3IBE | 2026-08-31 23:38:18 | 41.45372 | 2.48512 | 65° | 104km/h | 11542m | 5.0m/s | 0°C | 0% | 0hPa | 0V | 00:00:00 | 00:00:00 | 00:00:00 | |
| EA3IBE | 2026-08-31 23:38:12 | 41.45310 | 2.48329 | 66° | 100km/h | 11516m | 4.3m/s | 0°C | 0% | 0hPa | 0V | 00:00:00 | 00:00:00 | 00:00:00 | |
| EA3IBE | 2026-08-31 23:38:07 | 41.45255 | 2.48173 | 65° | 100km/h | 11496m | 4.3m/s | 0°C | 0% | 0hPa | 0V | 00:00:00 | 00:00:00 | 00:00:00 | |
| EA3IBE | 2026-08-31 23:38:02 | 41.45205 | 2.48020 | 70° | 102km/h | 11474m | 4.9m/s | 0°C | 0% | 0hPa | 0V | 00:00:00 | 00:00:00 | 00:00:00 | |
| EA3IBE | 2026-08-31 23:37:56 | 41.45142 | 2.47836 | 66° | 102km/h | 11450m | 3.6m/s | 0°C | 0% | 0hPa | 0V | 00:00:00 | 00:00:00 | 00:00:00 | |
| EA3IBE | 2026-08-31 23:37:50 | 41.45079 | 2.47648 | 68° | 100km/h | 11427m | 3.8m/s | 0°C | 0% | 0hPa | 0V | 00:00:00 | 00:00:00 | 00:00:00 | |
| EA3IBE | 2026-08-31 23:37:45 | 41.45028 | 2.47495 | 65° | 102km/h | 11406m | 3.8m/s | 0°C | 0% | 0hPa | 0V | 00:00:00 | 00:00:00 | 00:00:00 | |
| EA3IBE | 2026-08-31 23:37:39 | 41.44967 | 2.47309 | 67° | 99km/h | 11382m | 5.2m/s | 0°C | 0% | 0hPa | 0V | 00:00:00 | 00:00:00 | 00:00:00 | |
| EA3IBE | 2026-08-31 23:37:34 | 41.44917 | 2.47157 | 66° | 99km/h | 11361m | 4.2m/s | 0°C | 0% | 0hPa | 0V | 00:00:00 | 00:00:00 | 00:00:00 | |
| EA3IBE | 2026-08-31 23:37:28 | 41.44857 | 2.46978 | 67° | 91km/h | 11338m | 4.1m/s | 0°C | 0% | 0hPa | 0V | 00:00:00 | 00:00:00 | 00:00:00 | |
| EA3IBE | 2026-08-31 23:37:23 | 41.44806 | 2.46835 | 67° | 95km/h | 11318m | 4.6m/s | 0°C | 0% | 0hPa | 0V | 00:00:00 | 00:00:00 | 00:00:00 | |
| EA3IBE | 2026-08-31 23:37:16 | 41.44739 | 2.46624 | 69° | 95km/h | 11290m | 5.8m/s | 0°C | 0% | 0hPa | 0V | 00:00:00 | 00:00:00 | 00:00:00 | |
| EA3IBE | 2026-08-31 23:37:10 | 41.44679 | 2.46445 | 65° | 100km/h | 11264m | 4.2m/s | 0°C | 0% | 0hPa | 0V | 00:00:00 | 00:00:00 | 00:00:00 | |
| EA3IBE | 2026-08-31 23:37:05 | 41.44619 | 2.46265 | 70° | 95km/h | 11240m | 6.0m/s | 0°C | 0% | 0hPa | 0V | 00:00:00 | 00:00:00 | 00:00:00 | |
| EA3GEO | 2026-08-31 23:26:38 | 41.41524 | 2.29531 | 97° | 73km/h | 8523m | 4.2m/s | 0°C | 0% | 0hPa | 0V | 00:00:00 | 00:00:00 | 00:00:00 | |
| EA3GEO | 2026-08-31 23:26:25 | 41.41526 | 2.29199 | 96° | 69km/h | 8462m | 3.2m/s | 0°C | 0% | 0hPa | 0V | 00:00:00 | 00:00:00 | 00:00:00 | |
| EA3GEO | 2026-08-31 23:26:04 | 41.41530 | 2.28662 | 88° | 73km/h | 8362m | 2.9m/s | 0°C | 0% | 0hPa | 0V | 00:00:00 | 00:00:00 | 00:00:00 | |
| EA3GEO | 2026-08-31 23:25:49 | 41.41540 | 2.28277 | 94° | 82km/h | 8294m | 5.4m/s | 0°C | 0% | 0hPa | 0V | 00:00:00 | 00:00:00 | 00:00:00 | |
| EA3GEO | 2026-08-31 23:25:38 | 41.41543 | 2.28001 | 95° | 71km/h | 8233m | 4.5m/s | 0°C | 0% | 0hPa | 0V | 00:00:00 | 00:00:00 | 00:00:00 | |
| EA3GEO | 2026-08-31 23:25:33 | 41.41536 | 2.27882 | 88° | 69km/h | 8207m | 3.2m/s | 0°C | 0% | 0hPa | 0V | 00:00:00 | 00:00:00 | 00:00:00 | |
| EA3GEO | 2026-08-31 23:25:26 | 41.41539 | 2.27708 | 84° | 73km/h | 8172m | 5.8m/s | 0°C | 0% | 0hPa | 0V | 00:00:00 | 00:00:00 | 00:00:00 | |
| EA3GEO | 2026-08-31 23:25:20 | 41.41530 | 2.27571 | 91° | 64km/h | 8136m | 6.6m/s | 0°C | 0% | 0hPa | 0V | 00:00:00 | 00:00:00 | 00:00:00 | |
| EA3GEO | 2026-08-31 23:25:07 | 41.41532 | 2.27270 | 87° | 75km/h | 8067m | 3.3m/s | 0°C | 0% | 0hPa | 0V | 00:00:00 | 00:00:00 | 00:00:00 | |
| EA3GEO | 2026-08-31 23:24:58 | 41.41516 | 2.27057 | 86° | 62km/h | 8026m | 4.9m/s | 0°C | 0% | 0hPa | 0V | 00:00:00 | 00:00:00 | 00:00:00 | |
| EA3GEO | 2026-08-31 23:24:49 | 41.41501 | 2.26845 | 85° | 66km/h | 7979m | 4.5m/s | 0°C | 0% | 0hPa | 0V | 00:00:00 | 00:00:00 | 00:00:00 | |
| EA3GEO | 2026-08-31 23:24:43 | 41.41494 | 2.26712 | 83° | 62km/h | 7953m | 4.3m/s | 0°C | 0% | 0hPa | 0V | 00:00:00 | 00:00:00 | 00:00:00 | |
| EA3GEO | 2026-08-31 23:24:34 | 41.41491 | 2.26509 | 92° | 62km/h | 7911m | 6.4m/s | 0°C | 0% | 0hPa | 0V | 00:00:00 | 00:00:00 | 00:00:00 | |
| EA3GEO | 2026-08-31 23:24:29 | 41.41477 | 2.26402 | 83° | 68km/h | 7887m | 5.1m/s | 0°C | 0% | 0hPa | 0V | 00:00:00 | 00:00:00 | 00:00:00 | |
| EA3GEO | 2026-08-31 23:24:23 | 41.41480 | 2.26271 | 96° | 64km/h | 7853m | 5.4m/s | 0°C | 0% | 0hPa | 0V | 00:00:00 | 00:00:00 | 00:00:00 | |
| EA3GEO | 2026-08-31 23:24:15 | 41.41476 | 2.26095 | 88° | 60km/h | 7801m | 6.7m/s | 0°C | 0% | 0hPa | 0V | 00:00:00 | 00:00:00 | 00:00:00 | |
| EA3GEO | 2026-08-31 23:24:10 | 41.41478 | 2.25996 | 93° | 64km/h | 7777m | 5.8m/s | 0°C | 0% | 0hPa | 0V | 00:00:00 | 00:00:00 | 00:00:00 | |
| EA3GEO | 2026-08-31 23:24:05 | 41.41468 | 2.25881 | 89° | 62km/h | 7749m | 4.3m/s | 0°C | 0% | 0hPa | 0V | 00:00:00 | 00:00:00 | 00:00:00 | |
| EA3GEO | 2026-08-31 23:23:58 | 41.41469 | 2.25719 | 83° | 71km/h | 7710m | 6.0m/s | 0°C | 0% | 0hPa | 0V | 00:00:00 | 00:00:00 | 00:00:00 | |
| EA3GEO | 2026-08-31 23:23:52 | 41.41457 | 2.25586 | 98° | 58km/h | 7668m | 6.0m/s | 0°C | 0% | 0hPa | 0V | 00:00:00 | 00:00:00 | 00:00:00 | |
| EA3GEO | 2026-08-31 23:23:45 | 41.41449 | 2.25442 | 89° | 64km/h | 7636m | 5.6m/s | 0°C | 0% | 0hPa | 0V | 00:00:00 | 00:00:00 | 00:00:00 | |
| EA3GEO | 2026-08-31 23:23:39 | 41.41449 | 2.25311 | 83° | 71km/h | 7598m | 5.4m/s | 0°C | 0% | 0hPa | 0V | 00:00:00 | 00:00:00 | 00:00:00 | |
| EA3GEO | 2026-08-31 23:23:32 | 41.41439 | 2.25157 | 97° | 57km/h | 7561m | 7.5m/s | 0°C | 0% | 0hPa | 0V | 00:00:00 | 00:00:00 | 00:00:00 | |
| EA3GEO | 2026-08-31 23:23:26 | 41.41439 | 2.25032 | 80° | 64km/h | 7526m | 5.1m/s | 0°C | 0% | 0hPa | 0V | 00:00:00 | 00:00:00 | 00:00:00 | |
| EA3GEO | 2026-08-31 23:23:19 | 41.41442 | 2.24900 | 92° | 57km/h | 7496m | 5.0m/s | 0°C | 0% | 0hPa | 0V | 00:00:00 | 00:00:00 | 00:00:00 | |
| EA3GEO | 2026-08-31 23:23:14 | 41.41434 | 2.24802 | 89° | 62km/h | 7469m | 6.2m/s | 0°C | 0% | 0hPa | 0V | 00:00:00 | 00:00:00 | 00:00:00 | |
| EA3GEO | 2026-08-31 23:23:08 | 41.41435 | 2.24684 | 90° | 62km/h | 7440m | 4.1m/s | 0°C | 0% | 0hPa | 0V | 00:00:00 | 00:00:00 | 00:00:00 | |
| EA3GEO | 2026-08-31 23:23:02 | 41.41434 | 2.24566 | 89° | 66km/h | 7414m | 4.2m/s | 0°C | 0% | 0hPa | 0V | 00:00:00 | 00:00:00 | 00:00:00 | |
| EA3GEO | 2026-08-31 23:22:57 | 41.41436 | 2.24464 | 96° | 58km/h | 7392m | 4.7m/s | 0°C | 0% | 0hPa | 0V | 00:00:00 | 00:00:00 | 00:00:00 | |
| EA3GEO | 2026-08-31 23:22:52 | 41.41435 | 2.24362 | 82° | 60km/h | 7371m | 4.2m/s | 0°C | 0% | 0hPa | 0V | 00:00:00 | 00:00:00 | 00:00:00 | |
| EA3GEO | 2026-08-31 23:22:46 | 41.41430 | 2.24237 | 97° | 58km/h | 7343m | 3.8m/s | 0°C | 0% | 0hPa | 0V | 00:00:00 | 00:00:00 | 00:00:00 | |
| EA3GEO | 2026-08-31 23:22:41 | 41.41428 | 2.24138 | 84° | 69km/h | 7322m | 5.4m/s | 0°C | 0% | 0hPa | 0V | 00:00:00 | 00:00:00 | 00:00:00 | |
| EA3GEO | 2026-08-31 23:22:36 | 41.41423 | 2.24024 | 90° | 68km/h | 7295m | 4.9m/s | 0°C | 0% | 0hPa | 0V | 00:00:00 | 00:00:00 | 00:00:00 | |
| EA3GEO | 2026-08-31 23:22:30 | 41.41413 | 2.23906 | 82° | 51km/h | 7256m | 6.9m/s | 0°C | 0% | 0hPa | 0V | 00:00:00 | 00:00:00 | 00:00:00 | |
| EA3GEO | 2026-08-31 23:22:25 | 41.41405 | 2.23809 | 85° | 69km/h | 7225m | 5.5m/s | 0°C | 0% | 0hPa | 0V | 00:00:00 | 00:00:00 | 00:00:00 | |
| EA3GEO | 2026-08-31 23:22:19 | 41.41389 | 2.23681 | 86° | 62km/h | 7190m | 8.0m/s | 0°C | 0% | 0hPa | 0V | 00:00:00 | 00:00:00 | 00:00:00 | |
| EA3GEO | 2026-08-31 23:22:14 | 41.41383 | 2.23576 | 92° | 55km/h | 7156m | 8.3m/s | 0°C | 0% | 0hPa | 0V | 00:00:00 | 00:00:00 | 00:00:00 | |
| EA3GEO | 2026-08-31 23:22:09 | 41.41381 | 2.23486 | 83° | 57km/h | 7128m | 4.6m/s | 0°C | 0% | 0hPa | 0V | 00:00:00 | 00:00:00 | 00:00:00 | |
| EA3GEO | 2026-08-31 23:22:03 | 41.41365 | 2.23368 | 86° | 68km/h | 7095m | 5.3m/s | 0°C | 0% | 0hPa | 0V | 00:00:00 | 00:00:00 | 00:00:00 | |
| EA3GEO | 2026-08-31 23:21:58 | 41.41356 | 2.23270 | 87° | 51km/h | 7068m | 4.8m/s | 0°C | 0% | 0hPa | 0V | 00:00:00 | 00:00:00 | 00:00:00 | |
| EA3GEO | 2026-08-31 23:21:53 | 41.41343 | 2.23169 | 80° | 58km/h | 7038m | 5.7m/s | 0°C | 0% | 0hPa | 0V | 00:00:00 | 00:00:00 | 00:00:00 | |
| EA3GEO | 2026-08-31 23:21:47 | 41.41334 | 2.23051 | 79° | 64km/h | 7006m | 5.2m/s | 0°C | 0% | 0hPa | 0V | 00:00:00 | 00:00:00 | 00:00:00 | |
| EA3GEO | 2026-08-31 23:21:34 | 41.41317 | 2.22796 | 80° | 58km/h | 6937m | 5.0m/s | 0°C | 0% | 0hPa | 0V | 00:00:00 | 00:00:00 | 00:00:00 | |
| EA3GEO | 2026-08-31 23:21:28 | 41.41306 | 2.22662 | 91° | 57km/h | 6911m | 5.2m/s | 0°C | 0% | 0hPa | 0V | 00:00:00 | 00:00:00 | 00:00:00 | |
| EA3GEO | 2026-08-31 23:21:23 | 41.41294 | 2.22565 | 77° | 66km/h | 6881m | 4.6m/s | 0°C | 0% | 0hPa | 0V | 00:00:00 | 00:00:00 | 00:00:00 | |
| EA3GEO | 2026-08-31 23:21:18 | 41.41281 | 2.22469 | 83° | 55km/h | 6847m | 6.6m/s | 0°C | 0% | 0hPa | 0V | 00:00:00 | 00:00:00 | 00:00:00 | |
| EA3GEO | 2026-08-31 23:21:12 | 41.41276 | 2.22341 | 86° | 60km/h | 6811m | 6.7m/s | 0°C | 0% | 0hPa | 0V | 00:00:00 | 00:00:00 | 00:00:00 | |
| EA3GEO | 2026-08-31 23:21:06 | 41.41267 | 2.22217 | 81° | 64km/h | 6774m | 6.0m/s | 0°C | 0% | 0hPa | 0V | 00:00:00 | 00:00:00 | 00:00:00 | |
| EA3GEO | 2026-08-31 23:21:01 | 41.41264 | 2.22114 | 86° | 66km/h | 6746m | 5.8m/s | 0°C | 0% | 0hPa | 0V | 00:00:00 | 00:00:00 | 00:00:00 | |
| EA3GEO | 2026-08-31 23:20:55 | 41.41258 | 2.21987 | 99° | 64km/h | 6713m | 6.3m/s | 0°C | 0% | 0hPa | 0V | 00:00:00 | 00:00:00 | 00:00:00 | |
| EA3GEO | 2026-08-31 23:20:50 | 41.41271 | 2.21886 | 96° | 55km/h | 6685m | 4.1m/s | 0°C | 0% | 0hPa | 0V | 00:00:00 | 00:00:00 | 00:00:00 | |
| EA3GEO | 2026-08-31 23:20:44 | 41.41260 | 2.21765 | 93° | 66km/h | 6661m | 4.7m/s | 0°C | 0% | 0hPa | 0V | 00:00:00 | 00:00:00 | 00:00:00 | |
| EA3GEO | 2026-08-31 23:20:38 | 41.41262 | 2.21637 | 81° | 58km/h | 6632m | 6.2m/s | 0°C | 0% | 0hPa | 0V | 00:00:00 | 00:00:00 | 00:00:00 | |
| EA3GEO | 2026-08-31 23:20:33 | 41.41258 | 2.21549 | 88° | 55km/h | 6603m | 4.8m/s | 0°C | 0% | 0hPa | 0V | 00:00:00 | 00:00:00 | 00:00:00 | |
| EA3GEO | 2026-08-31 23:20:27 | 41.41253 | 2.21424 | 97° | 57km/h | 6572m | 2.5m/s | 0°C | 0% | 0hPa | 0V | 00:00:00 | 00:00:00 | 00:00:00 | |
| EA3GEO | 2026-08-31 23:20:21 | 41.41241 | 2.21303 | 77° | 68km/h | 6546m | 5.1m/s | 0°C | 0% | 0hPa | 0V | 00:00:00 | 00:00:00 | 00:00:00 | |
| EA3GEO | 2026-08-31 23:20:16 | 41.41242 | 2.21213 | 104° | 51km/h | 6521m | 2.9m/s | 0°C | 0% | 0hPa | 0V | 00:00:00 | 00:00:00 | 00:00:00 | |
| EA3GEO | 2026-08-31 23:20:10 | 41.41245 | 2.21094 | 93° | 66km/h | 6479m | 7.4m/s | 0°C | 0% | 0hPa | 0V | 00:00:00 | 00:00:00 | 00:00:00 | |
| EA3GEO | 2026-08-31 23:20:04 | 41.41240 | 2.20973 | 86° | 64km/h | 6442m | 7.4m/s | 0°C | 0% | 0hPa | 0V | 00:00:00 | 00:00:00 | 00:00:00 | |
| EA3GEO | 2026-08-31 23:19:59 | 41.41227 | 2.20861 | 80° | 58km/h | 6413m | 7.0m/s | 0°C | 0% | 0hPa | 0V | 00:00:00 | 00:00:00 | 00:00:00 | |
| EA3GEO | 2026-08-31 23:19:53 | 41.41221 | 2.20746 | 101° | 55km/h | 6378m | 2.8m/s | 0°C | 0% | 0hPa | 0V | 00:00:00 | 00:00:00 | 00:00:00 | |
| EA3GEO | 2026-08-31 23:19:41 | 41.41228 | 2.20506 | 94° | 64km/h | 6311m | 5.1m/s | 0°C | 0% | 0hPa | 0V | 00:00:00 | 00:00:00 | 00:00:00 | |
| EA3GEO | 2026-08-31 23:19:35 | 41.41219 | 2.20386 | 75° | 53km/h | 6285m | 4.1m/s | 0°C | 0% | 0hPa | 0V | 00:00:00 | 00:00:00 | 00:00:00 | |
| EA3GEO | 2026-08-31 23:19:30 | 41.41214 | 2.20291 | 98° | 71km/h | 6259m | 4.5m/s | 0°C | 0% | 0hPa | 0V | 00:00:00 | 00:00:00 | 00:00:00 | |
| EA3GEO | 2026-08-31 23:19:24 | 41.41222 | 2.20169 | 90° | 51km/h | 6230m | 6.7m/s | 0°C | 0% | 0hPa | 0V | 00:00:00 | 00:00:00 | 00:00:00 | |
| EA3GEO | 2026-08-31 23:19:19 | 41.41217 | 2.20067 | 90° | 62km/h | 6200m | 5.4m/s | 0°C | 0% | 0hPa | 0V | 00:00:00 | 00:00:00 | 00:00:00 | |
| EA3GEO | 2026-08-31 23:19:13 | 41.41220 | 2.19943 | 82° | 55km/h | 6172m | 5.8m/s | 0°C | 0% | 0hPa | 0V | 00:00:00 | 00:00:00 | 00:00:00 | |
| EA3GEO | 2026-08-31 23:19:08 | 41.41207 | 2.19840 | 83° | 68km/h | 6152m | 4.8m/s | 0°C | 0% | 0hPa | 0V | 00:00:00 | 00:00:00 | 00:00:00 | |
| EA3GEO | 2026-08-31 23:19:03 | 41.41206 | 2.19751 | 96° | 51km/h | 6123m | 5.1m/s | 0°C | 0% | 0hPa | 0V | 00:00:00 | 00:00:00 | 00:00:00 | |
| EA3GEO | 2026-08-31 23:18:57 | 41.41208 | 2.19642 | 87° | 49km/h | 6089m | 5.0m/s | 0°C | 0% | 0hPa | 0V | 00:00:00 | 00:00:00 | 00:00:00 | |
| EA3GEO | 2026-08-31 23:18:52 | 41.41208 | 2.19565 | 77° | 42km/h | 6065m | 4.2m/s | 0°C | 0% | 0hPa | 0V | 00:00:00 | 00:00:00 | 00:00:00 | |
| EA3GEO | 2026-08-31 23:18:46 | 41.41190 | 2.19476 | 89° | 46km/h | 6036m | 7.2m/s | 0°C | 0% | 0hPa | 0V | 00:00:00 | 00:00:00 | 00:00:00 | |
| EA3GEO | 2026-08-31 23:18:41 | 41.41196 | 2.19395 | 97° | 47km/h | 6007m | 6.8m/s | 0°C | 0% | 0hPa | 0V | 00:00:00 | 00:00:00 | 00:00:00 | |
| EA3GEO | 2026-08-31 23:18:35 | 41.41194 | 2.19321 | 99° | 35km/h | 5974m | 4.5m/s | 0°C | 0% | 0hPa | 0V | 00:00:00 | 00:00:00 | 00:00:00 | |
| EA3GEO | 2026-08-31 23:18:29 | 41.41201 | 2.19240 | 95° | 33km/h | 5943m | 7.1m/s | 0°C | 0% | 0hPa | 0V | 00:00:00 | 00:00:00 | 00:00:00 | |
| EA3GEO | 2026-08-31 23:18:24 | 41.41192 | 2.19186 | 85° | 40km/h | 5918m | 5.3m/s | 0°C | 0% | 0hPa | 0V | 00:00:00 | 00:00:00 | 00:00:00 | |
| EA3GEO | 2026-08-31 23:18:18 | 41.41192 | 2.19091 | 74° | 46km/h | 5892m | 6.3m/s | 0°C | 0% | 0hPa | 0V | 00:00:00 | 00:00:00 | 00:00:00 | |
| EA3GEO | 2026-08-31 23:18:12 | 41.41190 | 2.19025 | 89° | 29km/h | 5863m | 4.5m/s | 0°C | 0% | 0hPa | 0V | 00:00:00 | 00:00:00 | 00:00:00 | |
| EA3GEO | 2026-08-31 23:18:07 | 41.41177 | 2.18965 | 78° | 47km/h | 5834m | 5.6m/s | 0°C | 0% | 0hPa | 0V | 00:00:00 | 00:00:00 | 00:00:00 | |
| EA3GEO | 2026-08-31 23:18:02 | 41.41168 | 2.18896 | 97° | 31km/h | 5806m | 5.4m/s | 0°C | 0% | 0hPa | 0V | 00:00:00 | 00:00:00 | 00:00:00 | |
| EA3GEO | 2026-08-31 23:17:56 | 41.41158 | 2.18824 | 70° | 42km/h | 5772m | 5.9m/s | 0°C | 0% | 0hPa | 0V | 00:00:00 | 00:00:00 | 00:00:00 | |
| EA3GEO | 2026-08-31 23:17:50 | 41.41133 | 2.18763 | 77° | 31km/h | 5742m | 7.3m/s | 0°C | 0% | 0hPa | 0V | 00:00:00 | 00:00:00 | 00:00:00 | |
| EA3GEO | 2026-08-31 23:17:45 | 41.41122 | 2.18714 | 72° | 42km/h | 5710m | 7.3m/s | 0°C | 0% | 0hPa | 0V | 00:00:00 | 00:00:00 | 00:00:00 | |
| EA3GEO | 2026-08-31 23:17:40 | 41.41107 | 2.18640 | 74° | 42km/h | 5686m | 5.9m/s | 0°C | 0% | 0hPa | 0V | 00:00:00 | 00:00:00 | 00:00:00 | |
| EA3GEO | 2026-08-31 23:17:34 | 41.41078 | 2.18562 | 65° | 44km/h | 5657m | 1.8m/s | 0°C | 0% | 0hPa | 0V | 00:00:00 | 00:00:00 | 00:00:00 | |
| EA3GEO | 2026-08-31 23:17:29 | 41.41060 | 2.18499 | 62° | 40km/h | 5627m | 5.7m/s | 0°C | 0% | 0hPa | 0V | 00:00:00 | 00:00:00 | 00:00:00 | |
| EA3GEO | 2026-08-31 23:17:23 | 41.41048 | 2.18425 | 94° | 44km/h | 5600m | 3.1m/s | 0°C | 0% | 0hPa | 0V | 00:00:00 | 00:00:00 | 00:00:00 | |
| EA3GEO | 2026-08-31 23:17:18 | 41.41032 | 2.18357 | 56° | 42km/h | 5581m | 3.9m/s | 0°C | 0% | 0hPa | 0V | 00:00:00 | 00:00:00 | 00:00:00 | |
| EA3GEO | 2026-08-31 23:17:12 | 41.41014 | 2.18286 | 91° | 42km/h | 5560m | 2.7m/s | 0°C | 0% | 0hPa | 0V | 00:00:00 | 00:00:00 | 00:00:00 | |
| EA3GEO | 2026-08-31 23:17:07 | 41.41017 | 2.18216 | 95° | 46km/h | 5541m | 8.0m/s | 0°C | 0% | 0hPa | 0V | 00:00:00 | 00:00:00 | 00:00:00 | |
| EA3GEO | 2026-08-31 23:17:02 | 41.40998 | 2.18154 | 62° | 33km/h | 5511m | 4.4m/s | 0°C | 0% | 0hPa | 0V | 00:00:00 | 00:00:00 | 00:00:00 | |
| EA3GEO | 2026-08-31 23:16:56 | 41.40987 | 2.18095 | 65° | 27km/h | 5475m | 6.4m/s | 0°C | 0% | 0hPa | 0V | 00:00:00 | 00:00:00 | 00:00:00 | |
| EA3GEO | 2026-08-31 23:16:51 | 41.40970 | 2.18025 | 72° | 49km/h | 5450m | 3.3m/s | 0°C | 0% | 0hPa | 0V | 00:00:00 | 00:00:00 | 00:00:00 | |
| EA3GEO | 2026-08-31 23:16:45 | 41.40940 | 2.17950 | 61° | 40km/h | 5425m | 5.4m/s | 0°C | 0% | 0hPa | 0V | 00:00:00 | 00:00:00 | 00:00:00 | |
| EA3GEO | 2026-08-31 23:16:39 | 41.40914 | 2.17887 | 60° | 40km/h | 5397m | 3.8m/s | 0°C | 0% | 0hPa | 0V | 00:00:00 | 00:00:00 | 00:00:00 | |
| EA3GEO | 2026-08-31 23:16:34 | 41.40895 | 2.17806 | 85° | 53km/h | 5375m | 3.4m/s | 0°C | 0% | 0hPa | 0V | 00:00:00 | 00:00:00 | 00:00:00 | |
| EA3GEO | 2026-08-31 23:16:28 | 41.40880 | 2.17731 | 68° | 44km/h | 5342m | 9.3m/s | 0°C | 0% | 0hPa | 0V | 00:00:00 | 00:00:00 | 00:00:00 | |
| EA3GEO | 2026-08-31 23:16:22 | 41.40868 | 2.17649 | 68° | 27km/h | 5304m | 3.0m/s | 0°C | 0% | 0hPa | 0V | 00:00:00 | 00:00:00 | 00:00:00 | |
| EA3GEO | 2026-08-31 23:16:17 | 41.40849 | 2.17602 | 71° | 31km/h | 5281m | 6.8m/s | 0°C | 0% | 0hPa | 0V | 00:00:00 | 00:00:00 | 00:00:00 | |
| EA3GEO | 2026-08-31 23:16:12 | 41.40826 | 2.17552 | 69° | 38km/h | 5254m | 5.2m/s | 0°C | 0% | 0hPa | 0V | 00:00:00 | 00:00:00 | 00:00:00 | |
| EA3GEO | 2026-08-31 23:16:07 | 41.40823 | 2.17493 | 89° | 27km/h | 5230m | 5.2m/s | 0°C | 0% | 0hPa | 0V | 00:00:00 | 00:00:00 | 00:00:00 | |
| EA3GEO | 2026-08-31 23:16:01 | 41.40812 | 2.17421 | 76° | 57km/h | 5200m | 6.3m/s | 0°C | 0% | 0hPa | 0V | 00:00:00 | 00:00:00 | 00:00:00 | |
| EA3GEO | 2026-08-31 23:15:56 | 41.40807 | 2.17346 | 85° | 29km/h | 5168m | 6.7m/s | 0°C | 0% | 0hPa | 0V | 00:00:00 | 00:00:00 | 00:00:00 | |
| EA3GEO | 2026-08-31 23:15:50 | 41.40786 | 2.17266 | 75° | 51km/h | 5140m | 3.4m/s | 0°C | 0% | 0hPa | 0V | 00:00:00 | 00:00:00 | 00:00:00 | |
| EA3GEO | 2026-08-31 23:15:45 | 41.40773 | 2.17212 | 68° | 20km/h | 5117m | 3.9m/s | 0°C | 0% | 0hPa | 0V | 00:00:00 | 00:00:00 | 00:00:00 | |
| EA3GEO | 2026-08-31 23:15:35 | 41.40751 | 2.17098 | 71° | 38km/h | 5069m | 5.6m/s | 0°C | 0% | 0hPa | 0V | 00:00:00 | 00:00:00 | 00:00:00 | |
| EA3GEO | 2026-08-31 23:15:30 | 41.40727 | 2.17037 | 65° | 42km/h | 5033m | 5.3m/s | 0°C | 0% | 0hPa | 0V | 00:00:00 | 00:00:00 | 00:00:00 | |
| EA3GEO | 2026-08-31 23:15:24 | 41.40709 | 2.16965 | 75° | 49km/h | 5002m | 4.5m/s | 0°C | 0% | 0hPa | 0V | 00:00:00 | 00:00:00 | 00:00:00 | |
| EA3GEO | 2026-08-31 23:15:18 | 41.40676 | 2.16890 | 57° | 40km/h | 4967m | 6.5m/s | 0°C | 0% | 0hPa | 0V | 00:00:00 | 00:00:00 | 00:00:00 | |
| EA3GEO | 2026-08-31 23:15:13 | 41.40655 | 2.16823 | 71° | 53km/h | 4943m | 4.0m/s | 0°C | 0% | 0hPa | 0V | 00:00:00 | 00:00:00 | 00:00:00 | |
| EA3GEO | 2026-08-31 23:15:07 | 41.40640 | 2.16741 | 78° | 40km/h | 4916m | 7.6m/s | 0°C | 0% | 0hPa | 0V | 00:00:00 | 00:00:00 | 00:00:00 | |
| EA3GEO | 2026-08-31 23:15:01 | 41.40606 | 2.16673 | 41° | 37km/h | 4882m | 3.5m/s | 0°C | 0% | 0hPa | 0V | 00:00:00 | 00:00:00 | 00:00:00 | |
| EA3GEO | 2026-08-31 23:14:56 | 41.40583 | 2.16623 | 67° | 46km/h | 4852m | 6.0m/s | 0°C | 0% | 0hPa | 0V | 00:00:00 | 00:00:00 | 00:00:00 | |
| EA3GEO | 2026-08-31 23:14:51 | 41.40571 | 2.16558 | 84° | 29km/h | 4832m | 5.3m/s | 0°C | 0% | 0hPa | 0V | 00:00:00 | 00:00:00 | 00:00:00 | |
| EA3GEO | 2026-08-31 23:14:45 | 41.40553 | 2.16488 | 60° | 35km/h | 4791m | 5.8m/s | 0°C | 0% | 0hPa | 0V | 00:00:00 | 00:00:00 | 00:00:00 | |
| EA3GEO | 2026-08-31 23:14:39 | 41.40534 | 2.16429 | 60° | 38km/h | 4768m | 4.8m/s | 0°C | 0% | 0hPa | 0V | 00:00:00 | 00:00:00 | 00:00:00 | |
| EA3GEO | 2026-08-31 23:14:33 | 41.40495 | 2.16370 | 65° | 37km/h | 4745m | 8.5m/s | 0°C | 0% | 0hPa | 0V | 00:00:00 | 00:00:00 | 00:00:00 | |
| EA3GEO | 2026-08-31 23:14:28 | 41.40474 | 2.16325 | 50° | 37km/h | 4707m | 6.7m/s | 0°C | 0% | 0hPa | 0V | 00:00:00 | 00:00:00 | 00:00:00 | |
| EA3GEO | 2026-08-31 23:14:17 | 41.40425 | 2.16186 | 77° | 40km/h | 4655m | 6.7m/s | 0°C | 0% | 0hPa | 0V | 00:00:00 | 00:00:00 | 00:00:00 | |
| EA3GEO | 2026-08-31 23:14:12 | 41.40397 | 2.16117 | 60° | 46km/h | 4626m | 5.6m/s | 0°C | 0% | 0hPa | 0V | 00:00:00 | 00:00:00 | 00:00:00 | |
| EA3GEO | 2026-08-31 23:14:06 | 41.40371 | 2.16053 | 58° | 46km/h | 4586m | 6.9m/s | 0°C | 0% | 0hPa | 0V | 00:00:00 | 00:00:00 | 00:00:00 | |
| EA3GEO | 2026-08-31 23:14:01 | 41.40340 | 2.15992 | 59° | 27km/h | 4562m | 9.0m/s | 0°C | 0% | 0hPa | 0V | 00:00:00 | 00:00:00 | 00:00:00 | |
| EA3GEO | 2026-08-31 23:13:56 | 41.40315 | 2.15953 | 62° | 42km/h | 4529m | 6.5m/s | 0°C | 0% | 0hPa | 0V | 00:00:00 | 00:00:00 | 00:00:00 | |
| EA3GEO | 2026-08-31 23:13:50 | 41.40295 | 2.15897 | 45° | 18km/h | 4499m | 3.0m/s | 0°C | 0% | 0hPa | 0V | 00:00:00 | 00:00:00 | 00:00:00 | |
| EA3GEO | 2026-08-31 23:13:44 | 41.40272 | 2.15849 | 71° | 33km/h | 4464m | 6.9m/s | 0°C | 0% | 0hPa | 0V | 00:00:00 | 00:00:00 | 00:00:00 | |
| EA3GEO | 2026-08-31 23:13:39 | 41.40241 | 2.15808 | 52° | 37km/h | 4438m | 4.5m/s | 0°C | 0% | 0hPa | 0V | 00:00:00 | 00:00:00 | 00:00:00 | |
| EA3GEO | 2026-08-31 23:13:33 | 41.40222 | 2.15737 | 51° | 40km/h | 4392m | 8.8m/s | 0°C | 0% | 0hPa | 0V | 00:00:00 | 00:00:00 | 00:00:00 | |
| EA3GEO | 2026-08-31 23:13:27 | 41.40209 | 2.15677 | 77° | 22km/h | 4345m | 4.2m/s | 0°C | 0% | 0hPa | 0V | 00:00:00 | 00:00:00 | 00:00:00 | |
| EA3GEO | 2026-08-31 23:13:21 | 41.40188 | 2.15620 | 72° | 40km/h | 4317m | 3.3m/s | 0°C | 0% | 0hPa | 0V | 00:00:00 | 00:00:00 | 00:00:00 | |
| EA3GEO | 2026-08-31 23:13:16 | 41.40175 | 2.15576 | 75° | 18km/h | 4295m | 2.9m/s | 0°C | 0% | 0hPa | 0V | 00:00:00 | 00:00:00 | 00:00:00 | |
| EA3GEO | 2026-08-31 23:13:11 | 41.40166 | 2.15542 | 62° | 24km/h | 4266m | 6.3m/s | 0°C | 0% | 0hPa | 0V | 00:00:00 | 00:00:00 | 00:00:00 | |
| EA3GEO | 2026-08-31 23:13:05 | 41.40147 | 2.15473 | 82° | 27km/h | 4234m | 5.5m/s | 0°C | 0% | 0hPa | 0V | 00:00:00 | 00:00:00 | 00:00:00 | |
| EA3GEO | 2026-08-31 23:12:59 | 41.40135 | 2.15406 | 78° | 37km/h | 4191m | 6.8m/s | 0°C | 0% | 0hPa | 0V | 00:00:00 | 00:00:00 | 00:00:00 | |
| EA3GEO | 2026-08-31 23:12:54 | 41.40130 | 2.15369 | 83° | 16km/h | 4162m | 6.2m/s | 0°C | 0% | 0hPa | 0V | 00:00:00 | 00:00:00 | 00:00:00 | |
| EA3GEO | 2026-08-31 23:12:48 | 41.40125 | 2.15311 | 69° | 44km/h | 4128m | 4.6m/s | 0°C | 0% | 0hPa | 0V | 00:00:00 | 00:00:00 | 00:00:00 | |
| EA3GEO | 2026-08-31 23:12:43 | 41.40108 | 2.15273 | 73° | 26km/h | 4100m | 6.5m/s | 0°C | 0% | 0hPa | 0V | 00:00:00 | 00:00:00 | 00:00:00 | |
| EA3GEO | 2026-08-31 23:12:37 | 41.40092 | 2.15207 | 88° | 31km/h | 4058m | 6.6m/s | 0°C | 0% | 0hPa | 0V | 00:00:00 | 00:00:00 | 00:00:00 | |
| EA3GEO | 2026-08-31 23:12:31 | 41.40084 | 2.15166 | 53° | 31km/h | 4026m | 5.2m/s | 0°C | 0% | 0hPa | 0V | 00:00:00 | 00:00:00 | 00:00:00 | |
| EA3GEO | 2026-08-31 23:12:26 | 41.40062 | 2.15125 | 70° | 35km/h | 3994m | 4.7m/s | 0°C | 0% | 0hPa | 0V | 00:00:00 | 00:00:00 | 00:00:00 | |
| EA3GEO | 2026-08-31 23:12:20 | 41.40036 | 2.15058 | 68° | 33km/h | 3957m | 4.7m/s | 0°C | 0% | 0hPa | 0V | 00:00:00 | 00:00:00 | 00:00:00 | |
| EA3GEO | 2026-08-31 23:12:14 | 41.40020 | 2.15005 | 70° | 24km/h | 3919m | 5.6m/s | 0°C | 0% | 0hPa | 0V | 00:00:00 | 00:00:00 | 00:00:00 | |
| EA3GEO | 2026-08-31 23:12:08 | 41.40003 | 2.14970 | 67° | 27km/h | 3890m | 7.2m/s | 0°C | 0% | 0hPa | 0V | 00:00:00 | 00:00:00 | 00:00:00 | |
| EA3GEO | 2026-08-31 23:12:02 | 41.40002 | 2.14906 | 78° | 37km/h | 3851m | 4.5m/s | 0°C | 0% | 0hPa | 0V | 00:00:00 | 00:00:00 | 00:00:00 | |
| EA3GEO | 2026-08-31 23:11:56 | 41.39980 | 2.14840 | 87° | 29km/h | 3820m | 7.8m/s | 0°C | 0% | 0hPa | 0V | 00:00:00 | 00:00:00 | 00:00:00 | |
| EA3GEO | 2026-08-31 23:11:50 | 41.39973 | 2.14775 | 59° | 35km/h | 3784m | 2.8m/s | 0°C | 0% | 0hPa | 0V | 00:00:00 | 00:00:00 | 00:00:00 | |
| EA3GEO | 2026-08-31 23:11:45 | 41.39962 | 2.14715 | 90° | 35km/h | 3753m | 7.3m/s | 0°C | 0% | 0hPa | 0V | 00:00:00 | 00:00:00 | 00:00:00 | |
| EA3GEO | 2026-08-31 23:11:40 | 41.39968 | 2.14669 | 88° | 31km/h | 3727m | 4.8m/s | 0°C | 0% | 0hPa | 0V | 00:00:00 | 00:00:00 | 00:00:00 | |
| EA3GEO | 2026-08-31 23:11:34 | 41.39981 | 2.14588 | 107° | 46km/h | 3692m | 3.1m/s | 0°C | 0% | 0hPa | 0V | 00:00:00 | 00:00:00 | 00:00:00 | |
| EA3GEO | 2026-08-31 23:11:29 | 41.39986 | 2.14524 | 92° | 35km/h | 3659m | 6.2m/s | 0°C | 0% | 0hPa | 0V | 00:00:00 | 00:00:00 | 00:00:00 | |
| EA3GEO | 2026-08-31 23:11:24 | 41.39988 | 2.14470 | 83° | 38km/h | 3638m | 4.8m/s | 0°C | 0% | 0hPa | 0V | 00:00:00 | 00:00:00 | 00:00:00 | |
| EA3GEO | 2026-08-31 23:11:19 | 41.39987 | 2.14414 | 95° | 27km/h | 3610m | 3.5m/s | 0°C | 0% | 0hPa | 0V | 00:00:00 | 00:00:00 | 00:00:00 | |
| EA3GEO | 2026-08-31 23:11:13 | 41.39986 | 2.14333 | 104° | 46km/h | 3571m | 7.7m/s | 0°C | 0% | 0hPa | 0V | 00:00:00 | 00:00:00 | 00:00:00 | |
| EA3GEO | 2026-08-31 23:11:07 | 41.39988 | 2.14246 | 78° | 35km/h | 3529m | 6.2m/s | 0°C | 0% | 0hPa | 0V | 00:00:00 | 00:00:00 | 00:00:00 | |
| EA3GEO | 2026-08-31 23:11:01 | 41.39971 | 2.14160 | 79° | 46km/h | 3501m | 2.8m/s | 0°C | 0% | 0hPa | 0V | 00:00:00 | 00:00:00 | 00:00:00 | |
| EA3GEO | 2026-08-31 23:10:55 | 41.39969 | 2.14077 | 96° | 29km/h | 3466m | 5.1m/s | 0°C | 0% | 0hPa | 0V | 00:00:00 | 00:00:00 | 00:00:00 | |
| EA3GEO | 2026-08-31 23:10:50 | 41.39973 | 2.14014 | 78° | 40km/h | 3441m | 6.0m/s | 0°C | 0% | 0hPa | 0V | 00:00:00 | 00:00:00 | 00:00:00 | |
| EA3GEO | 2026-08-31 23:10:44 | 41.39951 | 2.13949 | 91° | 26km/h | 3413m | 5.9m/s | 0°C | 0% | 0hPa | 0V | 00:00:00 | 00:00:00 | 00:00:00 | |
| EA3GEO | 2026-08-31 23:10:39 | 41.39955 | 2.13892 | 81° | 46km/h | 3387m | 8.1m/s | 0°C | 0% | 0hPa | 0V | 00:00:00 | 00:00:00 | 00:00:00 | |
| EA3GEO | 2026-08-31 23:10:33 | 41.39942 | 2.13810 | 65° | 38km/h | 3346m | 5.3m/s | 0°C | 0% | 0hPa | 0V | 00:00:00 | 00:00:00 | 00:00:00 | |
| EA3GEO | 2026-08-31 23:10:27 | 41.39912 | 2.13730 | 71° | 38km/h | 3320m | 5.3m/s | 0°C | 0% | 0hPa | 0V | 00:00:00 | 00:00:00 | 00:00:00 | |
| EA3GEO | 2026-08-31 23:10:22 | 41.39915 | 2.13666 | 84° | 42km/h | 3298m | 3.3m/s | 0°C | 0% | 0hPa | 0V | 00:00:00 | 00:00:00 | 00:00:00 | |
| EA3GEO | 2026-08-31 23:10:16 | 41.39890 | 2.13599 | 56° | 38km/h | 3266m | 4.0m/s | 0°C | 0% | 0hPa | 0V | 00:00:00 | 00:00:00 | 00:00:00 | |
| EA3GEO | 2026-08-31 23:10:10 | 41.39861 | 2.13542 | 56° | 20km/h | 3237m | 5.3m/s | 0°C | 0% | 0hPa | 0V | 00:00:00 | 00:00:00 | 00:00:00 | |
| EA3GEO | 2026-08-31 23:10:05 | 41.39841 | 2.13502 | 60° | 47km/h | 3213m | 5.8m/s | 0°C | 0% | 0hPa | 0V | 00:00:00 | 00:00:00 | 00:00:00 | |
| EA3GEO | 2026-08-31 23:09:59 | 41.39808 | 2.13437 | 80° | 37km/h | 3176m | 7.9m/s | 0°C | 0% | 0hPa | 0V | 00:00:00 | 00:00:00 | 00:00:00 | |
| EA3GEO | 2026-08-31 23:09:53 | 41.39796 | 2.13356 | 73° | 47km/h | 3146m | 3.7m/s | 0°C | 0% | 0hPa | 0V | 00:00:00 | 00:00:00 | 00:00:00 | |
| EA3GEO | 2026-08-31 23:09:48 | 41.39783 | 2.13297 | 84° | 22km/h | 3117m | 4.9m/s | 0°C | 0% | 0hPa | 0V | 00:00:00 | 00:00:00 | 00:00:00 | |
| EA3GEO | 2026-08-31 23:09:42 | 41.39771 | 2.13260 | 59° | 26km/h | 3091m | 5.7m/s | 0°C | 0% | 0hPa | 0V | 00:00:00 | 00:00:00 | 00:00:00 | |
| EA3GEO | 2026-08-31 23:09:36 | 41.39763 | 2.13210 | 69° | 29km/h | 3063m | 6.1m/s | 0°C | 0% | 0hPa | 0V | 00:00:00 | 00:00:00 | 00:00:00 | |
| EA3GEO | 2026-08-31 23:09:30 | 41.39726 | 2.13172 | 47° | 37km/h | 3030m | 4.4m/s | 0°C | 0% | 0hPa | 0V | 00:00:00 | 00:00:00 | 00:00:00 | |
| EA3GEO | 2026-08-31 23:09:25 | 41.39702 | 2.13132 | 51° | 33km/h | 3001m | 3.7m/s | 0°C | 0% | 0hPa | 0V | 00:00:00 | 00:00:00 | 00:00:00 | |
| EA3GEO | 2026-08-31 23:09:19 | 41.39668 | 2.13080 | 54° | 37km/h | 2979m | 5.6m/s | 0°C | 0% | 0hPa | 0V | 00:00:00 | 00:00:00 | 00:00:00 | |
| EA3GEO | 2026-08-31 23:09:13 | 41.39653 | 2.13026 | 50° | 27km/h | 2945m | 5.0m/s | 0°C | 0% | 0hPa | 0V | 00:00:00 | 00:00:00 | 00:00:00 | |
| EA3GEO | 2026-08-31 23:09:08 | 41.39636 | 2.12975 | 65° | 37km/h | 2911m | 5.1m/s | 0°C | 0% | 0hPa | 0V | 00:00:00 | 00:00:00 | 00:00:00 | |
| EA3GEO | 2026-08-31 23:09:03 | 41.39618 | 2.12920 | 65° | 27km/h | 2873m | 5.5m/s | 0°C | 0% | 0hPa | 0V | 00:00:00 | 00:00:00 | 00:00:00 | |
| EA3GEO | 2026-08-31 23:08:57 | 41.39592 | 2.12865 | 69° | 31km/h | 2840m | 5.7m/s | 0°C | 0% | 0hPa | 0V | 00:00:00 | 00:00:00 | 00:00:00 | |
| EA3GEO | 2026-08-31 23:08:52 | 41.39590 | 2.12827 | 97° | 31km/h | 2817m | 4.3m/s | 0°C | 0% | 0hPa | 0V | 00:00:00 | 00:00:00 | 00:00:00 | |
| EA3GEO | 2026-08-31 23:08:47 | 41.39582 | 2.12780 | 53° | 27km/h | 2786m | 5.0m/s | 0°C | 0% | 0hPa | 0V | 00:00:00 | 00:00:00 | 00:00:00 | |
| EA3GEO | 2026-08-31 23:08:42 | 41.39558 | 2.12744 | 52° | 27km/h | 2763m | 5.6m/s | 0°C | 0% | 0hPa | 0V | 00:00:00 | 00:00:00 | 00:00:00 | |
| EA3GEO | 2026-08-31 23:08:37 | 41.39553 | 2.12700 | 82° | 26km/h | 2738m | 3.3m/s | 0°C | 0% | 0hPa | 0V | 00:00:00 | 00:00:00 | 00:00:00 | |
| EA3GEO | 2026-08-31 23:08:26 | 41.39508 | 2.12593 | 70° | 44km/h | 2683m | 4.7m/s | 0°C | 0% | 0hPa | 0V | 00:00:00 | 00:00:00 | 00:00:00 | |
| EA3GEO | 2026-08-31 23:08:20 | 41.39489 | 2.12540 | 35° | 31km/h | 2650m | 2.5m/s | 0°C | 0% | 0hPa | 0V | 00:00:00 | 00:00:00 | 00:00:00 | |
| EA3GEO | 2026-08-31 23:08:15 | 41.39467 | 2.12486 | 84° | 40km/h | 2626m | 6.5m/s | 0°C | 0% | 0hPa | 0V | 00:00:00 | 00:00:00 | 00:00:00 | |
| EA3GEO | 2026-08-31 23:08:09 | 41.39460 | 2.12419 | 57° | 33km/h | 2593m | 3.3m/s | 0°C | 0% | 0hPa | 0V | 00:00:00 | 00:00:00 | 00:00:00 | |
| EA3GEO | 2026-08-31 23:08:03 | 41.39445 | 2.12356 | 91° | 35km/h | 2558m | 1.6m/s | 0°C | 0% | 0hPa | 0V | 00:00:00 | 00:00:00 | 00:00:00 | |
| EA3GEO | 2026-08-31 23:07:57 | 41.39431 | 2.12285 | 81° | 35km/h | 2526m | 5.4m/s | 0°C | 0% | 0hPa | 0V | 00:00:00 | 00:00:00 | 00:00:00 | |
| EA3GEO | 2026-08-31 23:07:51 | 41.39427 | 2.12235 | 57° | 20km/h | 2499m | 4.9m/s | 0°C | 0% | 0hPa | 0V | 00:00:00 | 00:00:00 | 00:00:00 | |
| EA3GEO | 2026-08-31 23:07:45 | 41.39403 | 2.12191 | 62° | 44km/h | 2469m | 3.3m/s | 0°C | 0% | 0hPa | 0V | 00:00:00 | 00:00:00 | 00:00:00 | |
| EA3GEO | 2026-08-31 23:07:39 | 41.39376 | 2.12123 | 54° | 27km/h | 2440m | 6.3m/s | 0°C | 0% | 0hPa | 0V | 00:00:00 | 00:00:00 | 00:00:00 | |
| EA3GEO | 2026-08-31 23:07:33 | 41.39365 | 2.12071 | 90° | 35km/h | 2410m | 2.2m/s | 0°C | 0% | 0hPa | 0V | 00:00:00 | 00:00:00 | 00:00:00 | |
| EA3GEO | 2026-08-31 23:07:27 | 41.39346 | 2.12014 | 67° | 40km/h | 2374m | 6.1m/s | 0°C | 0% | 0hPa | 0V | 00:00:00 | 00:00:00 | 00:00:00 | |
| EA3GEO | 2026-08-31 23:07:22 | 41.39335 | 2.11962 | 84° | 16km/h | 2350m | 6.6m/s | 0°C | 0% | 0hPa | 0V | 00:00:00 | 00:00:00 | 00:00:00 | |
| EA3GEO | 2026-08-31 23:07:16 | 41.39335 | 2.11926 | 80° | 20km/h | 2318m | 6.2m/s | 0°C | 0% | 0hPa | 0V | 00:00:00 | 00:00:00 | 00:00:00 | |
| EA3GEO | 2026-08-31 23:07:10 | 41.39311 | 2.11877 | 69° | 24km/h | 2287m | 5.4m/s | 0°C | 0% | 0hPa | 0V | 00:00:00 | 00:00:00 | 00:00:00 | |
| EA3GEO | 2026-08-31 23:07:04 | 41.39308 | 2.11836 | 95° | 31km/h | 2259m | 4.5m/s | 0°C | 0% | 0hPa | 0V | 00:00:00 | 00:00:00 | 00:00:00 | |
| EA3GEO | 2026-08-31 23:06:59 | 41.39291 | 2.11801 | 23° | 13km/h | 2231m | 5.0m/s | 0°C | 0% | 0hPa | 0V | 00:00:00 | 00:00:00 | 00:00:00 | |
| EA3GEO | 2026-08-31 23:06:53 | 41.39272 | 2.11781 | 55° | 26km/h | 2197m | 5.0m/s | 0°C | 0% | 0hPa | 0V | 00:00:00 | 00:00:00 | 00:00:00 | |
| EA3GEO | 2026-08-31 23:06:47 | 41.39249 | 2.11742 | 24° | 24km/h | 2167m | 3.7m/s | 0°C | 0% | 0hPa | 0V | 00:00:00 | 00:00:00 | 00:00:00 | |
| EA3GEO | 2026-08-31 23:06:42 | 41.39230 | 2.11724 | 65° | 18km/h | 2143m | 6.7m/s | 0°C | 0% | 0hPa | 0V | 00:00:00 | 00:00:00 | 00:00:00 | |
| EA3GEO | 2026-08-31 23:06:37 | 41.39218 | 2.11702 | 69° | 13km/h | 2105m | 4.6m/s | 0°C | 0% | 0hPa | 0V | 00:00:00 | 00:00:00 | 00:00:00 | |
| EA3GEO | 2026-08-31 23:06:31 | 41.39219 | 2.11673 | 78° | 18km/h | 2077m | 5.3m/s | 0°C | 0% | 0hPa | 0V | 00:00:00 | 00:00:00 | 00:00:00 | |
| EA3GEO | 2026-08-31 23:06:26 | 41.39193 | 2.11642 | 50° | 35km/h | 2050m | 6.0m/s | 0°C | 0% | 0hPa | 0V | 00:00:00 | 00:00:00 | 00:00:00 | |
| EA3GEO | 2026-08-31 23:06:20 | 41.39171 | 2.11595 | 52° | 26km/h | 2018m | 5.8m/s | 0°C | 0% | 0hPa | 0V | 00:00:00 | 00:00:00 | 00:00:00 | |
| EA3GEO | 2026-08-31 23:06:14 | 41.39156 | 2.11545 | 71° | 26km/h | 1992m | 6.8m/s | 0°C | 0% | 0hPa | 0V | 00:00:00 | 00:00:00 | 00:00:00 | |
| EA3GEO | 2026-08-31 23:06:08 | 41.39127 | 2.11512 | 52° | 13km/h | 1947m | 5.9m/s | 0°C | 0% | 0hPa | 0V | 00:00:00 | 00:00:00 | 00:00:00 | |
| EA3GEO | 2026-08-31 23:06:03 | 41.39117 | 2.11492 | 56° | 24km/h | 1920m | 3.6m/s | 0°C | 0% | 0hPa | 0V | 00:00:00 | 00:00:00 | 00:00:00 | |
| EA3GEO | 2026-08-31 23:05:57 | 41.39112 | 2.11456 | 75° | 16km/h | 1885m | 5.8m/s | 0°C | 0% | 0hPa | 0V | 00:00:00 | 00:00:00 | 00:00:00 | |
| EA3GEO | 2026-08-31 23:05:51 | 41.39086 | 2.11425 | 64° | 15km/h | 1852m | 4.1m/s | 0°C | 0% | 0hPa | 0V | 00:00:00 | 00:00:00 | 00:00:00 | |
| EA3GEO | 2026-08-31 23:05:45 | 41.39069 | 2.11381 | 51° | 29km/h | 1817m | 6.9m/s | 0°C | 0% | 0hPa | 0V | 00:00:00 | 00:00:00 | 00:00:00 | |
| EA3GEO | 2026-08-31 23:05:39 | 41.39039 | 2.11332 | 30° | 29km/h | 1788m | 4.8m/s | 0°C | 0% | 0hPa | 0V | 00:00:00 | 00:00:00 | 00:00:00 | |
| EA3GEO | 2026-08-31 23:05:33 | 41.39010 | 2.11300 | 52° | 24km/h | 1750m | 5.0m/s | 0°C | 0% | 0hPa | 0V | 00:00:00 | 00:00:00 | 00:00:00 | |
| EA3GEO | 2026-08-31 23:05:27 | 41.38999 | 2.11273 | 79° | 26km/h | 1725m | 2.4m/s | 0°C | 0% | 0hPa | 0V | 00:00:00 | 00:00:00 | 00:00:00 | |
| EA3GEO | 2026-08-31 23:05:22 | 41.38986 | 2.11235 | 44° | 13km/h | 1707m | 5.9m/s | 0°C | 0% | 0hPa | 0V | 00:00:00 | 00:00:00 | 00:00:00 | |
| EA3GEO | 2026-08-31 23:05:16 | 41.38966 | 2.11221 | 44° | 29km/h | 1674m | 5.7m/s | 0°C | 0% | 0hPa | 0V | 00:00:00 | 00:00:00 | 00:00:00 | |
| EA3GEO | 2026-08-31 23:05:10 | 41.38934 | 2.11184 | 13° | 26km/h | 1642m | 2.9m/s | 0°C | 0% | 0hPa | 0V | 00:00:00 | 00:00:00 | 00:00:00 | |
| EA3GEO | 2026-08-31 23:05:05 | 41.38919 | 2.11173 | 66° | 9km/h | 1617m | 4.3m/s | 0°C | 0% | 0hPa | 0V | 00:00:00 | 00:00:00 | 00:00:00 | |
| EA3GEO | 2026-08-31 23:05:00 | 41.38902 | 2.11154 | 36° | 20km/h | 1591m | 6.6m/s | 0°C | 0% | 0hPa | 0V | 00:00:00 | 00:00:00 | 00:00:00 | |
| EA3GEO | 2026-08-31 23:04:54 | 41.38866 | 2.11135 | 349° | 26km/h | 1569m | 2.9m/s | 0°C | 0% | 0hPa | 0V | 00:00:00 | 00:00:00 | 00:00:00 | |
| EA3GEO | 2026-08-31 23:04:48 | 41.38839 | 2.11124 | 32° | 35km/h | 1534m | 4.2m/s | 0°C | 0% | 0hPa | 0V | 00:00:00 | 00:00:00 | 00:00:00 | |
| EA3GEO | 2026-08-31 23:04:43 | 41.38813 | 2.11111 | 27° | 16km/h | 1509m | 6.2m/s | 0°C | 0% | 0hPa | 0V | 00:00:00 | 00:00:00 | 00:00:00 | |
| EA3GEO | 2026-08-31 23:04:37 | 41.38802 | 2.11103 | 298° | 7km/h | 1479m | 3.1m/s | 0°C | 0% | 0hPa | 0V | 00:00:00 | 00:00:00 | 00:00:00 | |
| EA3GEO | 2026-08-31 23:04:32 | 41.38783 | 2.11100 | 57° | 22km/h | 1455m | 6.9m/s | 0°C | 0% | 0hPa | 0V | 00:00:00 | 00:00:00 | 00:00:00 | |
| EA3GEO | 2026-08-31 23:04:27 | 41.38766 | 2.11062 | 57° | 26km/h | 1433m | 2.9m/s | 0°C | 0% | 0hPa | 0V | 00:00:00 | 00:00:00 | 00:00:00 | |
| EA3GEO | 2026-08-31 23:04:21 | 41.38730 | 2.11047 | 17° | 20km/h | 1402m | 4.7m/s | 0°C | 0% | 0hPa | 0V | 00:00:00 | 00:00:00 | 00:00:00 | |
| EA3GEO | 2026-08-31 23:04:15 | 41.38719 | 2.11038 | 356° | 20km/h | 1373m | 3.9m/s | 0°C | 0% | 0hPa | 0V | 00:00:00 | 00:00:00 | 00:00:00 | |
| EA3GEO | 2026-08-31 23:04:09 | 41.38690 | 2.11026 | 338° | 7km/h | 1344m | 5.0m/s | 0°C | 0% | 0hPa | 0V | 00:00:00 | 00:00:00 | 00:00:00 | |
| EA3GEO | 2026-08-31 23:04:04 | 41.38684 | 2.11043 | 342° | 16km/h | 1312m | 5.9m/s | 0°C | 0% | 0hPa | 0V | 00:00:00 | 00:00:00 | 00:00:00 | |
| EA3GEO | 2026-08-31 23:03:58 | 41.38660 | 2.11062 | 358° | 4km/h | 1277m | 3.8m/s | 0°C | 0% | 0hPa | 0V | 00:00:00 | 00:00:00 | 00:00:00 | |
| EA3GEO | 2026-08-31 23:03:53 | 41.38656 | 2.11059 | 6° | 9km/h | 1249m | 2.5m/s | 0°C | 0% | 0hPa | 0V | 00:00:00 | 00:00:00 | 00:00:00 | |
| EA3GEO | 2026-08-31 23:03:47 | 41.38645 | 2.11067 | 350° | 9km/h | 1220m | 4.4m/s | 0°C | 0% | 0hPa | 0V | 00:00:00 | 00:00:00 | 00:00:00 | |
| EA3GEO | 2026-08-31 23:03:42 | 41.38649 | 2.11086 | 221° | 24km/h | 1197m | 4.2m/s | 0°C | 0% | 0hPa | 0V | 00:00:00 | 00:00:00 | 00:00:00 | |
| EA3GEO | 2026-08-31 23:03:36 | 41.38654 | 2.11117 | 287° | 22km/h | 1168m | 4.0m/s | 0°C | 0% | 0hPa | 0V | 00:00:00 | 00:00:00 | 00:00:00 | |
| EA3GEO | 2026-08-31 23:03:30 | 41.38656 | 2.11160 | 274° | 26km/h | 1139m | 4.3m/s | 0°C | 0% | 0hPa | 0V | 00:00:00 | 00:00:00 | 00:00:00 | |
| EA3GEO | 2026-08-31 23:03:25 | 41.38645 | 2.11185 | 341° | 15km/h | 1113m | 4.6m/s | 0°C | 0% | 0hPa | 0V | 00:00:00 | 00:00:00 | 00:00:00 | |
| EA3GEO | 2026-08-31 23:03:20 | 41.38630 | 2.11197 | 302° | 7km/h | 1090m | 8.5m/s | 0°C | 0% | 0hPa | 0V | 00:00:00 | 00:00:00 | 00:00:00 | |
| EA3GEO | 2026-08-31 23:03:14 | 41.38616 | 2.11207 | 330° | 16km/h | 1060m | 4.0m/s | 0°C | 0% | 0hPa | 0V | 00:00:00 | 00:00:00 | 00:00:00 | |
| EA3GEO | 2026-08-31 23:03:02 | 41.38595 | 2.11228 | 341° | 16km/h | 1002m | 5.7m/s | 0°C | 0% | 0hPa | 0V | 00:00:00 | 00:00:00 | 00:00:00 | |
| EA3GEO | 2026-08-31 23:02:56 | 41.38582 | 2.11237 | 337° | 9km/h | 972m | 6.3m/s | 0°C | 0% | 0hPa | 0V | 00:00:00 | 00:00:00 | 00:00:00 | |
| EA3GEO | 2026-08-31 23:02:51 | 41.38568 | 2.11251 | 330° | 15km/h | 947m | 5.5m/s | 0°C | 0% | 0hPa | 0V | 00:00:00 | 00:00:00 | 00:00:00 | |
| EA3GEO | 2026-08-31 23:02:45 | 41.38564 | 2.11273 | 268° | 15km/h | 910m | 5.6m/s | 0°C | 0% | 0hPa | 0V | 00:00:00 | 00:00:00 | 00:00:00 | |
| EA3GEO | 2026-08-31 23:02:40 | 41.38567 | 2.11299 | 276° | 20km/h | 886m | 2.9m/s | 0°C | 0% | 0hPa | 0V | 00:00:00 | 00:00:00 | 00:00:00 | |
| EA3GEO | 2026-08-31 23:02:35 | 41.38558 | 2.11316 | 290° | 9km/h | 860m | 6.2m/s | 0°C | 0% | 0hPa | 0V | 00:00:00 | 00:00:00 | 00:00:00 | |
| EA3GEO | 2026-08-31 23:02:29 | 41.38545 | 2.11354 | 311° | 22km/h | 818m | 4.6m/s | 0°C | 0% | 0hPa | 0V | 00:00:00 | 00:00:00 | 00:00:00 | |
| EA3GEO | 2026-08-31 23:02:23 | 41.38522 | 2.11387 | 360° | 5km/h | 795m | 3.7m/s | 0°C | 0% | 0hPa | 0V | 00:00:00 | 00:00:00 | 00:00:00 | |
| EA3GEO | 2026-08-31 23:02:18 | 41.38514 | 2.11394 | 331° | 15km/h | 768m | 5.8m/s | 0°C | 0% | 0hPa | 0V | 00:00:00 | 00:00:00 | 00:00:00 | |
| EA3GEO | 2026-08-31 23:02:13 | 41.38501 | 2.11408 | 280° | 9km/h | 746m | 5.3m/s | 0°C | 0% | 0hPa | 0V | 00:00:00 | 00:00:00 | 00:00:00 | |
| EA3GEO | 2026-08-31 23:02:07 | 41.38492 | 2.11429 | 347° | 7km/h | 707m | 5.8m/s | 0°C | 0% | 0hPa | 0V | 00:00:00 | 00:00:00 | 00:00:00 | |
| EA3GEO | 2026-08-31 23:02:02 | 41.38494 | 2.11450 | 274° | 22km/h | 686m | 2.8m/s | 0°C | 0% | 0hPa | 0V | 00:00:00 | 00:00:00 | 00:00:00 | |
| EA3GEO | 2026-08-31 23:01:56 | 41.38485 | 2.11477 | 280° | 15km/h | 659m | 5.4m/s | 0°C | 0% | 0hPa | 0V | 00:00:00 | 00:00:00 | 00:00:00 | |
| EA3GEO | 2026-08-31 23:01:50 | 41.38488 | 2.11504 | 279° | 22km/h | 623m | 5.9m/s | 0°C | 0% | 0hPa | 0V | 00:00:00 | 00:00:00 | 00:00:00 | |
| EA3GEO | 2026-08-31 23:01:44 | 41.38488 | 2.11532 | 301° | 15km/h | 592m | 4.2m/s | 0°C | 0% | 0hPa | 0V | 00:00:00 | 00:00:00 | 00:00:00 | |
| EA3GEO | 2026-08-31 23:01:32 | 41.38480 | 2.11579 | 315° | 15km/h | 521m | 6.6m/s | 0°C | 0% | 0hPa | 0V | 00:00:00 | 00:00:00 | 00:00:00 | |
| EA3GEO | 2026-08-31 23:01:27 | 41.38480 | 2.11597 | 245° | 22km/h | 495m | 6.1m/s | 0°C | 0% | 0hPa | 0V | 00:00:00 | 00:00:00 | 00:00:00 | |
| EA3GEO | 2026-08-31 23:01:22 | 41.38490 | 2.11612 | 12° | 7km/h | 469m | 4.3m/s | 0°C | 0% | 0hPa | 0V | 00:00:00 | 00:00:00 | 00:00:00 | |
| EA3GEO | 2026-08-31 23:01:16 | 41.38475 | 2.11634 | 249° | 11km/h | 438m | 4.8m/s | 0°C | 0% | 0hPa | 0V | 00:00:00 | 00:00:00 | 00:00:00 | |
| EA3GEO | 2026-08-31 23:01:11 | 41.38473 | 2.11646 | 264° | 16km/h | 413m | 6.1m/s | 0°C | 0% | 0hPa | 0V | 00:00:00 | 00:00:00 | 00:00:00 | |
| EA3GEO | 2026-08-31 23:01:06 | 41.38468 | 2.11649 | 360° | 13km/h | 387m | 2.0m/s | 0°C | 0% | 0hPa | 0V | 00:00:00 | 00:00:00 | 00:00:00 | |
| EA3GEO | 2026-08-31 23:01:01 | 41.38466 | 2.11675 | 319° | 18km/h | 360m | 3.5m/s | 0°C | 0% | 0hPa | 0V | 00:00:00 | 00:00:00 | 00:00:00 | |
| EA3GEO | 2026-08-31 23:00:43 | 41.38460 | 2.11718 | 358° | 18km/h | 267m | 3.0m/s | 0°C | 0% | 0hPa | 0V | 00:00:00 | 00:00:00 | 00:00:00 |